Observation data for Sierra Blanca on 11/19/2019      Previous  Date  Next       Current Mesonet Observations  Soil Data  Daily Summary Page  Observations in Plain Language
KSB1 190600Z 05003KT 13/M04 A3007 RMK A01 T01311040  RH  030%=      5-min Rain = 0
KSB1 190601Z 06003KT 13/M04 A3007 RMK A01 T01321040  RH  030%=      5-min Rain = 0
KSB1 190602Z 07003KT 13/M04 A3007 RMK A01 T01331039  RH  030%=      5-min Rain = 0
KSB1 190603Z 05002KT 13/M04 A3007 RMK A01 T01331038  RH  030%=      5-min Rain = 0
KSB1 190604Z 05001KT 13/M04 A3007 RMK A01 T01321039  RH  030%=      5-min Rain = 0
KSB1 190605Z 04001KT 13/M04 A3007 RMK A01 T01311039  RH  030%=      5-min Rain = 0
KSB1 190606Z 02001KT 13/M04 A3007 RMK A01 T01291039  RH  031%=      5-min Rain = 0
KSB1 190607Z 36000KT 13/M04 A3007 RMK A01 T01271038  RH  031%=      5-min Rain = 0
KSB1 190608Z 00000KT 13/M04 A3007 RMK A01 T01251038  RH  032%=      5-min Rain = 0
KSB1 190609Z 00000KT 13/M04 A3007 RMK A01 T01261040  RH  031%=      5-min Rain = 0
KSB1 190610Z 00000KT 13/M04 A3007 RMK A01 T01301040  RH  030%=      5-min Rain = 0
KSB1 190611Z 00000KT 13/M04 A3007 RMK A01 T01321039  RH  030%=      5-min Rain = 0
KSB1 190612Z 00000KT 13/M04 A3007 RMK A01 T01311038  RH  031%=      5-min Rain = 0
KSB1 190613Z 00000KT 13/M04 A3007 RMK A01 T01301038  RH  031%=      5-min Rain = 0
KSB1 190614Z 00000KT 13/M04 A3007 RMK A01 T01291038  RH  031%=      5-min Rain = 0
KSB1 190615Z 24000KT 13/M04 A3007 RMK A01 T01281038  RH  031%=      5-min Rain = 0
KSB1 190616Z 24001KT 13/M04 A3007 RMK A01 T01281038  RH  031%=      5-min Rain = 0
KSB1 190617Z 24002KT 13/M04 A3007 RMK A01 T01291038  RH  031%=      5-min Rain = 0
KSB1 190618Z 24002KT 13/M04 A3007 RMK A01 T01301039  RH  031%=      5-min Rain = 0
KSB1 190619Z 25002KT 13/M04 A3007 RMK A01 T01301039  RH  031%=      5-min Rain = 0
KSB1 190620Z 26002KT 13/M04 A3007 RMK A01 T01311039  RH  031%=      5-min Rain = 0
KSB1 190621Z 26003KT 13/M04 A3007 RMK A01 T01321039  RH  030%=      5-min Rain = 0
KSB1 190622Z 27003KT 13/M04 A3007 RMK A01 T01321039  RH  030%=      5-min Rain = 0
KSB1 190623Z 27002KT 13/M04 A3007 RMK A01 T01331039  RH  030%=      5-min Rain = 0
KSB1 190624Z 28001KT 13/M04 A3007 RMK A01 T01341039  RH  030%=      5-min Rain = 0
KSB1 190625Z 28001KT 14/M04 A3007 RMK A01 T01361039  RH  029%=      5-min Rain = 0
KSB1 190626Z 28001KT 14/M04 A3007 RMK A01 T01391039  RH  029%=      5-min Rain = 0
KSB1 190627Z 27000KT 14/M04 A3007 RMK A01 T01411039  RH  028%=      5-min Rain = 0
KSB1 190628Z 04000KT 14/M04 A3007 RMK A01 T01411040  RH  028%=      5-min Rain = 0
KSB1 190629Z 06002KT 14/M04 A3007 RMK A01 T01421040  RH  028%=      5-min Rain = 0
KSB1 190630Z 07001KT 14/M04 A3007 RMK A01 T01411039  RH  029%=      5-min Rain = 0
KSB1 190631Z 08002KT 14/M04 A3007 RMK A01 T01381039  RH  029%=      5-min Rain = 0
KSB1 190632Z 10003KT 13/M04 A3007 RMK A01 T01311039  RH  030%=      5-min Rain = 0
KSB1 190633Z 12003KT 12/M04 A3007 RMK A01 T01201040  RH  033%=      5-min Rain = 0
KSB1 190634Z 12003KT 11/M04 A3007 RMK A01 T01101041  RH  034%=      5-min Rain = 0
KSB1 190635Z 12002KT 11/M04 A3007 RMK A01 T01071040  RH  035%=      5-min Rain = 0
KSB1 190636Z 12003KT 11/M04 A3007 RMK A01 T01061039  RH  036%=      5-min Rain = 0
KSB1 190637Z 12003KT 11/M04 A3007 RMK A01 T01051039  RH  036%=      5-min Rain = 0
KSB1 190638Z 10002KT 11/M04 A3007 RMK A01 T01061040  RH  036%=      5-min Rain = 0
KSB1 190639Z 10002KT 11/M04 A3007 RMK A01 T01111039  RH  035%=      5-min Rain = 0
KSB1 190640Z 08001KT 11/M04 A3007 RMK A01 T01121039  RH  034%=      5-min Rain = 0
KSB1 190641Z 08001KT 11/M04 A3007 RMK A01 T01121040  RH  034%=      5-min Rain = 0
KSB1 190642Z 12001KT 11/M04 A3007 RMK A01 T01131040  RH  034%=      5-min Rain = 0
KSB1 190643Z 11000KT 12/M04 A3007 RMK A01 T01151040  RH  034%=      5-min Rain = 0
KSB1 190644Z 00000KT 12/M04 A3007 RMK A01 T01161040  RH  033%=      5-min Rain = 0
KSB1 190645Z 00000KT 12/M04 A3007 RMK A01 T01191039  RH  033%=      5-min Rain = 0
KSB1 190646Z 08000KT 12/M04 A3007 RMK A01 T01211040  RH  032%=      5-min Rain = 0
KSB1 190647Z 04001KT 12/M04 A3007 RMK A01 T01221040  RH  032%=      5-min Rain = 0
KSB1 190648Z 04001KT 12/M04 A3007 RMK A01 T01221040  RH  032%=      5-min Rain = 0
KSB1 190649Z 04001KT 12/M04 A3007 RMK A01 T01221040  RH  032%=      5-min Rain = 0
KSB1 190650Z 04001KT 12/M04 A3007 RMK A01 T01221040  RH  032%=      5-min Rain = 0
KSB1 190651Z 02000KT 12/M04 A3007 RMK A01 T01221040  RH  032%=      5-min Rain = 0
KSB1 190652Z 02001KT 12/M04 A3007 RMK A01 T01231040  RH  032%=      5-min Rain = 0
KSB1 190653Z 00002KT 12/M04 A3007 RMK A01 T01231040  RH  032%=      5-min Rain = 0
KSB1 190654Z 36002KT 12/M04 A3007 RMK A01 T01231040  RH  032%=      5-min Rain = 0
KSB1 190655Z 01002KT 12/M04 A3007 RMK A01 T01231040  RH  032%=      5-min Rain = 0
KSB1 190656Z 04002KT 12/M04 A3007 RMK A01 T01231040  RH  032%=      5-min Rain = 0
KSB1 190657Z 07002KT 12/M04 A3007 RMK A01 T01241039  RH  032%=      5-min Rain = 0
KSB1 190658Z 07002KT 13/M04 A3007 RMK A01 T01251039  RH  032%=      5-min Rain = 0
KSB1 190659Z 07002KT 12/M04 A3007 RMK A01 T01231038  RH  032%=      5-min Rain = 0
KSB1 190700Z 05003KT 12/M04 A3007 RMK A01 T01181038  RH  033%=      5-min Rain = 0
KSB1 190701Z 04003KT 11/M04 A3007 RMK A01 T01131038  RH  034%=      5-min Rain = 0
KSB1 190702Z 04003KT 11/M04 A3007 RMK A01 T01091038  RH  035%=      5-min Rain = 0
KSB1 190703Z 03003KT 11/M04 A3007 RMK A01 T01071038  RH  036%=      5-min Rain = 0
KSB1 190704Z 02004KT 11/M04 A3007 RMK A01 T01081039  RH  035%=      5-min Rain = 0
KSB1 190705Z 02004KT 11/M04 A3007 RMK A01 T01111038  RH  035%=      5-min Rain = 0
KSB1 190706Z 02005KT 11/M04 A3007 RMK A01 T01131038  RH  034%=      5-min Rain = 0
KSB1 190707Z 02004KT 11/M04 A3007 RMK A01 T01141038  RH  034%=      5-min Rain = 0
KSB1 190708Z 02004KT 11/M04 A3007 RMK A01 T01141038  RH  034%=      5-min Rain = 0
KSB1 190709Z 02004KT 11/M04 A3007 RMK A01 T01141038  RH  034%=      5-min Rain = 0
KSB1 190710Z 03004KT 11/M04 A3006 RMK A01 T01131038  RH  034%=      5-min Rain = 0
KSB1 190711Z 02004KT 11/M04 A3006 RMK A01 T01131038  RH  034%=      5-min Rain = 0
KSB1 190712Z 03004KT 11/M04 A3006 RMK A01 T01131038  RH  034%=      5-min Rain = 0
KSB1 190713Z 02003KT 11/M04 A3006 RMK A01 T01131039  RH  034%=      5-min Rain = 0
KSB1 190714Z 02003KT 11/M04 A3006 RMK A01 T01131039  RH  034%=      5-min Rain = 0
KSB1 190715Z 02003KT 11/M04 A3006 RMK A01 T01131039  RH  034%=      5-min Rain = 0
KSB1 190716Z 02003KT 11/M04 A3006 RMK A01 T01131039  RH  034%=      5-min Rain = 0
KSB1 190717Z 02003KT 11/M04 A3006 RMK A01 T01141039  RH  034%=      5-min Rain = 0
KSB1 190718Z 02003KT 11/M04 A3006 RMK A01 T01141039  RH  034%=      5-min Rain = 0
KSB1 190719Z 02004KT 11/M04 A3006 RMK A01 T01141039  RH  034%=      5-min Rain = 0
KSB1 190720Z 02004KT 12/M04 A3006 RMK A01 T01151040  RH  034%=      5-min Rain = 0
KSB1 190721Z 01004KT 12/M04 A3006 RMK A01 T01161040  RH  033%=      5-min Rain = 0
KSB1 190722Z 01004KT 12/M04 A3006 RMK A01 T01161040  RH  033%=      5-min Rain = 0
KSB1 190723Z 02004KT 12/M04 A3006 RMK A01 T01161040  RH  033%=      5-min Rain = 0
KSB1 190724Z 02004KT 12/M04 A3006 RMK A01 T01161040  RH  033%=      5-min Rain = 0
KSB1 190725Z 01003KT 12/M04 A3006 RMK A01 T01171041  RH  033%=      5-min Rain = 0
KSB1 190726Z 02003KT 12/M04 A3006 RMK A01 T01181041  RH  033%=      5-min Rain = 0
KSB1 190727Z 01003KT 12/M04 A3006 RMK A01 T01181041  RH  033%=      5-min Rain = 0
KSB1 190728Z 01003KT 12/M04 A3007 RMK A01 T01181041  RH  033%=      5-min Rain = 0
KSB1 190729Z 36003KT 12/M04 A3007 RMK A01 T01181041  RH  033%=      5-min Rain = 0
KSB1 190730Z 36003KT 12/M04 A3007 RMK A01 T01181041  RH  033%=      5-min Rain = 0
KSB1 190731Z 00004KT 12/M04 A3007 RMK A01 T01181041  RH  033%=      5-min Rain = 0
KSB1 190732Z 00003KT 12/M04 A3007 RMK A01 T01181042  RH  033%=      5-min Rain = 0
KSB1 190733Z 01004KT 12/M04 A3006 RMK A01 T01191042  RH  032%=      5-min Rain = 0
KSB1 190734Z 00004KT 12/M04 A3006 RMK A01 T01191042  RH  032%=      5-min Rain = 0
KSB1 190735Z 01004KT 12/M04 A3006 RMK A01 T01191041  RH  032%=      5-min Rain = 0
KSB1 190736Z 00004KT 12/M04 A3006 RMK A01 T01191041  RH  032%=      5-min Rain = 0
KSB1 190737Z 00004KT 12/M04 A3006 RMK A01 T01181041  RH  032%=      5-min Rain = 0
KSB1 190738Z 00004KT 12/M04 A3006 RMK A01 T01181041  RH  033%=      5-min Rain = 0
KSB1 190739Z 00003KT 12/M04 A3006 RMK A01 T01181041  RH  032%=      5-min Rain = 0
KSB1 190740Z 00004KT 12/M04 A3006 RMK A01 T01181042  RH  032%=      5-min Rain = 0
KSB1 190741Z 36004KT 12/M04 A3006 RMK A01 T01191042  RH  032%=      5-min Rain = 0
KSB1 190742Z 36003KT 12/M04 A3006 RMK A01 T01191042  RH  032%=      5-min Rain = 0
KSB1 190743Z 00003KT 12/M04 A3006 RMK A01 T01201041  RH  032%=      5-min Rain = 0
KSB1 190744Z 01003KT 12/M04 A3006 RMK A01 T01201041  RH  032%=      5-min Rain = 0
KSB1 190745Z 01003KT 12/M04 A3006 RMK A01 T01201041  RH  032%=      5-min Rain = 0
KSB1 190746Z 01003KT 12/M04 A3006 RMK A01 T01201042  RH  032%=      5-min Rain = 0
KSB1 190747Z 02003KT 12/M04 A3006 RMK A01 T01201041  RH  032%=      5-min Rain = 0
KSB1 190748Z 02003KT 12/M04 A3006 RMK A01 T01201042  RH  032%=      5-min Rain = 0
KSB1 190749Z 02003KT 12/M04 A3006 RMK A01 T01221043  RH  031%=      5-min Rain = 0
KSB1 190750Z 02003KT 12/M04 A3006 RMK A01 T01241042  RH  031%=      5-min Rain = 0
KSB1 190751Z 02003KT 13/M04 A3006 RMK A01 T01261042  RH  031%=      5-min Rain = 0
KSB1 190752Z 02003KT 13/M04 A3006 RMK A01 T01271042  RH  031%=      5-min Rain = 0
KSB1 190753Z 02003KT 13/M04 A3006 RMK A01 T01281042  RH  030%=      5-min Rain = 0
KSB1 190754Z 02003KT 13/M04 A3006 RMK A01 T01291042  RH  030%=      5-min Rain = 0
KSB1 190755Z 02003KT 13/M04 A3006 RMK A01 T01291042  RH  030%=      5-min Rain = 0
KSB1 190756Z 02003KT 13/M04 A3006 RMK A01 T01301042  RH  030%=      5-min Rain = 0
KSB1 190757Z 02003KT 13/M04 A3006 RMK A01 T01301042  RH  030%=      5-min Rain = 0
KSB1 190758Z 02004KT 13/M04 A3006 RMK A01 T01301042  RH  030%=      5-min Rain = 0
KSB1 190759Z 02004KT 13/M04 A3006 RMK A01 T01311042  RH  030%=      5-min Rain = 0
KSB1 190800Z 02004KT 13/M04 A3006 RMK A01 T01311042  RH  030%=      5-min Rain = 0
KSB1 190801Z 02003KT 13/M04 A3006 RMK A01 T01311042  RH  030%=      5-min Rain = 0
KSB1 190802Z 02003KT 13/M04 A3006 RMK A01 T01321042  RH  030%=      5-min Rain = 0
KSB1 190803Z 02003KT 13/M04 A3006 RMK A01 T01321042  RH  029%=      5-min Rain = 0
KSB1 190804Z 03003KT 13/M04 A3006 RMK A01 T01331043  RH  029%=      5-min Rain = 0
KSB1 190805Z 02002KT 13/M04 A3006 RMK A01 T01331043  RH  029%=      5-min Rain = 0
KSB1 190806Z 02002KT 13/M04 A3006 RMK A01 T01331042  RH  029%=      5-min Rain = 0
KSB1 190807Z 02002KT 13/M04 A3006 RMK A01 T01321042  RH  030%=      5-min Rain = 0
KSB1 190808Z 02001KT 13/M04 A3006 RMK A01 T01291042  RH  030%=      5-min Rain = 0
KSB1 190809Z 02001KT 13/M04 A3006 RMK A01 T01261042  RH  031%=      5-min Rain = 0
KSB1 190810Z 01001KT 13/M04 A3006 RMK A01 T01251043  RH  031%=      5-min Rain = 0
KSB1 190811Z 01001KT 13/M04 A3006 RMK A01 T01271043  RH  030%=      5-min Rain = 0
KSB1 190812Z 35000KT 13/M04 A3006 RMK A01 T01301043  RH  030%=      5-min Rain = 0
KSB1 190813Z 35000KT 13/M04 A3006 RMK A01 T01291043  RH  030%=      5-min Rain = 0
KSB1 190814Z 35001KT 13/M04 A3006 RMK A01 T01271043  RH  030%=      5-min Rain = 0
KSB1 190815Z 34001KT 13/M04 A3006 RMK A01 T01261043  RH  031%=      5-min Rain = 0
KSB1 190816Z 35001KT 13/M04 A3006 RMK A01 T01261042  RH  031%=      5-min Rain = 0
KSB1 190817Z 02001KT 13/M04 A3006 RMK A01 T01261043  RH  031%=      5-min Rain = 0
KSB1 190818Z 03001KT 13/M04 A3006 RMK A01 T01271043  RH  030%=      5-min Rain = 0
KSB1 190819Z 02001KT 13/M04 A3006 RMK A01 T01281044  RH  030%=      5-min Rain = 0
KSB1 190820Z 03001KT 13/M04 A3006 RMK A01 T01301044  RH  030%=      5-min Rain = 0
KSB1 190821Z 03000KT 13/M04 A3006 RMK A01 T01311044  RH  029%=      5-min Rain = 0
KSB1 190822Z 03001KT 13/M05 A3006 RMK A01 T01321045  RH  029%=      5-min Rain = 0
KSB1 190823Z 03001KT 13/M05 A3006 RMK A01 T01321045  RH  029%=      5-min Rain = 0
KSB1 190824Z 04001KT 13/M05 A3006 RMK A01 T01321045  RH  029%=      5-min Rain = 0
KSB1 190825Z 04001KT 13/M05 A3006 RMK A01 T01331045  RH  029%=      5-min Rain = 0
KSB1 190826Z 04000KT 13/M05 A3006 RMK A01 T01331045  RH  029%=      5-min Rain = 0
KSB1 190827Z 00000KT 13/M05 A3006 RMK A01 T01331045  RH  029%=      5-min Rain = 0
KSB1 190828Z 00000KT 13/M05 A3006 RMK A01 T01331045  RH  029%=      5-min Rain = 0
KSB1 190829Z 03000KT 13/M05 A3006 RMK A01 T01321045  RH  029%=      5-min Rain = 0
KSB1 190830Z 03001KT 13/M05 A3006 RMK A01 T01321045  RH  029%=      5-min Rain = 0
KSB1 190831Z 03001KT 13/M05 A3006 RMK A01 T01311045  RH  029%=      5-min Rain = 0
KSB1 190832Z 03001KT 13/M05 A3006 RMK A01 T01311045  RH  029%=      5-min Rain = 0
KSB1 190833Z 03001KT 13/M05 A3006 RMK A01 T01311045  RH  029%=      5-min Rain = 0
KSB1 190834Z 03001KT 13/M05 A3006 RMK A01 T01311045  RH  029%=      5-min Rain = 0
KSB1 190835Z 03000KT 13/M05 A3006 RMK A01 T01321045  RH  029%=      5-min Rain = 0
KSB1 190836Z 00000KT 13/M05 A3006 RMK A01 T01321045  RH  029%=      5-min Rain = 0
KSB1 190837Z 00000KT 13/M05 A3006 RMK A01 T01311045  RH  029%=      5-min Rain = 0
KSB1 190838Z 00000KT 13/M05 A3006 RMK A01 T01311045  RH  029%=      5-min Rain = 0
KSB1 190839Z 19001KT 13/M04 A3006 RMK A01 T01321044  RH  029%=      5-min Rain = 0
KSB1 190840Z 20002KT 13/M04 A3006 RMK A01 T01321044  RH  029%=      5-min Rain = 0
KSB1 190841Z 22002KT 13/M04 A3006 RMK A01 T01301044  RH  029%=      5-min Rain = 0
KSB1 190842Z 25002KT 13/M04 A3006 RMK A01 T01251044  RH  030%=      5-min Rain = 0
KSB1 190843Z 25003KT 12/M04 A3006 RMK A01 T01201043  RH  032%=      5-min Rain = 0
KSB1 190844Z 25002KT 12/M04 A3006 RMK A01 T01171042  RH  033%=      5-min Rain = 0
KSB1 190845Z 26002KT 12/M04 A3006 RMK A01 T01151041  RH  033%=      5-min Rain = 0
KSB1 190846Z 26002KT 11/M04 A3006 RMK A01 T01141040  RH  034%=      5-min Rain = 0
KSB1 190847Z 26002KT 11/M04 A3006 RMK A01 T01131040  RH  034%=      5-min Rain = 0
KSB1 190848Z 26001KT 11/M04 A3006 RMK A01 T01141040  RH  034%=      5-min Rain = 0
KSB1 190849Z 27001KT 11/M04 A3006 RMK A01 T01141039  RH  034%=      5-min Rain = 0
KSB1 190850Z 27001KT 12/M04 A3006 RMK A01 T01151040  RH  034%=      5-min Rain = 0
KSB1 190851Z 27000KT 12/M04 A3006 RMK A01 T01161040  RH  033%=      5-min Rain = 0
KSB1 190852Z 26000KT 12/M04 A3006 RMK A01 T01181040  RH  033%=      5-min Rain = 0
KSB1 190853Z 26000KT 12/M04 A3006 RMK A01 T01201040  RH  032%=      5-min Rain = 0
KSB1 190854Z 00000KT 12/M04 A3006 RMK A01 T01211040  RH  032%=      5-min Rain = 0
KSB1 190855Z 00000KT 12/M04 A3006 RMK A01 T01221040  RH  032%=      5-min Rain = 0
KSB1 190856Z 00000KT 12/M04 A3006 RMK A01 T01231040  RH  032%=      5-min Rain = 0
KSB1 190857Z 00000KT 12/M04 A3006 RMK A01 T01241041  RH  031%=      5-min Rain = 0
KSB1 190858Z 00000KT 13/M04 A3006 RMK A01 T01271041  RH  031%=      5-min Rain = 0
KSB1 190859Z 00000KT 13/M04 A3006 RMK A01 T01281041  RH  031%=      5-min Rain = 0
KSB1 190900Z 00000KT 13/M04 A3006 RMK A01 T01301042  RH  030%=      5-min Rain = 0
KSB1 190901Z 00000KT 13/M04 A3006 RMK A01 T01311043  RH  029%=      5-min Rain = 0
KSB1 190902Z 00000KT 13/M04 A3006 RMK A01 T01321043  RH  029%=      5-min Rain = 0
KSB1 190903Z 00000KT 13/M04 A3005 RMK A01 T01331044  RH  029%=      5-min Rain = 0
KSB1 190904Z 00000KT 13/M04 A3005 RMK A01 T01331044  RH  029%=      5-min Rain = 0
KSB1 190905Z 00000KT 13/M04 A3005 RMK A01 T01331044  RH  029%=      5-min Rain = 0
KSB1 190906Z 00000KT 13/M04 A3005 RMK A01 T01331044  RH  029%=      5-min Rain = 0
KSB1 190907Z 00000KT 13/M05 A3005 RMK A01 T01331045  RH  029%=      5-min Rain = 0
KSB1 190908Z 03001KT 13/M04 A3005 RMK A01 T01331044  RH  029%=      5-min Rain = 0
KSB1 190909Z 03001KT 13/M05 A3005 RMK A01 T01331045  RH  029%=      5-min Rain = 0
KSB1 190910Z 03001KT 13/M04 A3005 RMK A01 T01331044  RH  029%=      5-min Rain = 0
KSB1 190911Z 02001KT 13/M05 A3005 RMK A01 T01331045  RH  029%=      5-min Rain = 0
KSB1 190912Z 02000KT 13/M04 A3005 RMK A01 T01331044  RH  029%=      5-min Rain = 0
KSB1 190913Z 00000KT 13/M05 A3005 RMK A01 T01321045  RH  029%=      5-min Rain = 0
KSB1 190914Z 00000KT 13/M05 A3005 RMK A01 T01321045  RH  029%=      5-min Rain = 0
KSB1 190915Z 00000KT 13/M05 A3005 RMK A01 T01321045  RH  029%=      5-min Rain = 0
KSB1 190916Z 00000KT 13/M05 A3005 RMK A01 T01311045  RH  029%=      5-min Rain = 0
KSB1 190917Z 21000KT 13/M05 A3005 RMK A01 T01311045  RH  029%=      5-min Rain = 0
KSB1 190918Z 22001KT 13/M04 A3005 RMK A01 T01311044  RH  029%=      5-min Rain = 0
KSB1 190919Z 22001KT 13/M04 A3005 RMK A01 T01311044  RH  029%=      5-min Rain = 0
KSB1 190920Z 23001KT 13/M05 A3005 RMK A01 T01311045  RH  029%=      5-min Rain = 0
KSB1 190921Z 24001KT 13/M05 A3005 RMK A01 T01311045  RH  029%=      5-min Rain = 0
KSB1 190922Z 24001KT 13/M05 A3005 RMK A01 T01301045  RH  029%=      5-min Rain = 0
KSB1 190923Z 24002KT 13/M05 A3005 RMK A01 T01311045  RH  029%=      5-min Rain = 0
KSB1 190924Z 25003KT 13/M04 A3005 RMK A01 T01301044  RH  029%=      5-min Rain = 0
KSB1 190925Z 26003KT 13/M04 A3005 RMK A01 T01281043  RH  030%=      5-min Rain = 0
KSB1 190926Z 27004KT 12/M04 A3005 RMK A01 T01241043  RH  031%=      5-min Rain = 0
KSB1 190927Z 27004KT 12/M04 A3005 RMK A01 T01211042  RH  032%=      5-min Rain = 0
KSB1 190928Z 27004KT 12/M04 A3005 RMK A01 T01191042  RH  032%=      5-min Rain = 0
KSB1 190929Z 27004KT 12/M04 A3005 RMK A01 T01191041  RH  032%=      5-min Rain = 0
KSB1 190930Z 28004KT 12/M04 A3005 RMK A01 T01181041  RH  032%=      5-min Rain = 0
KSB1 190931Z 27004KT 12/M04 A3005 RMK A01 T01181041  RH  033%=      5-min Rain = 0
KSB1 190932Z 27004KT 12/M04 A3006 RMK A01 T01181041  RH  032%=      5-min Rain = 0
KSB1 190933Z 27004KT 12/M04 A3006 RMK A01 T01191041  RH  032%=      5-min Rain = 0
KSB1 190934Z 27004KT 12/M04 A3006 RMK A01 T01191041  RH  032%=      5-min Rain = 0
KSB1 190935Z 26004KT 12/M04 A3006 RMK A01 T01201041  RH  032%=      5-min Rain = 0
KSB1 190936Z 27004KT 12/M04 A3006 RMK A01 T01201041  RH  032%=      5-min Rain = 0
KSB1 190937Z 26004KT 12/M04 A3006 RMK A01 T01191041  RH  032%=      5-min Rain = 0
KSB1 190938Z 26004KT 12/M04 A3006 RMK A01 T01181041  RH  033%=      5-min Rain = 0
KSB1 190939Z 26003KT 12/M04 A3005 RMK A01 T01181041  RH  033%=      5-min Rain = 0
KSB1 190940Z 26003KT 12/M04 A3005 RMK A01 T01181041  RH  032%=      5-min Rain = 0
KSB1 190941Z 25002KT 12/M04 A3005 RMK A01 T01191042  RH  032%=      5-min Rain = 0
KSB1 190942Z 25002KT 12/M04 A3005 RMK A01 T01221042  RH  031%=      5-min Rain = 0
KSB1 190943Z 25002KT 13/M04 A3005 RMK A01 T01251042  RH  031%=      5-min Rain = 0
KSB1 190944Z 26002KT 13/M04 A3005 RMK A01 T01271043  RH  030%=      5-min Rain = 0
KSB1 190945Z 25002KT 13/M04 A3005 RMK A01 T01291043  RH  030%=      5-min Rain = 0
KSB1 190946Z 23001KT 13/M04 A3005 RMK A01 T01301043  RH  030%=      5-min Rain = 0
KSB1 190947Z 23001KT 13/M04 A3005 RMK A01 T01321044  RH  029%=      5-min Rain = 0
KSB1 190948Z 22001KT 14/M04 A3005 RMK A01 T01351044  RH  029%=      5-min Rain = 0
KSB1 190949Z 22001KT 14/M04 A3005 RMK A01 T01371042  RH  029%=      5-min Rain = 0
KSB1 190950Z 21001KT 14/M04 A3005 RMK A01 T01381042  RH  028%=      5-min Rain = 0
KSB1 190951Z 22002KT 14/M04 A3005 RMK A01 T01381043  RH  028%=      5-min Rain = 0
KSB1 190952Z 23002KT 14/M04 A3005 RMK A01 T01381043  RH  028%=      5-min Rain = 0
KSB1 190953Z 23002KT 14/M04 A3005 RMK A01 T01381042  RH  028%=      5-min Rain = 0
KSB1 190954Z 23003KT 14/M04 A3005 RMK A01 T01371043  RH  029%=      5-min Rain = 0
KSB1 190955Z 23003KT 14/M04 A3005 RMK A01 T01351042  RH  029%=      5-min Rain = 0
KSB1 190956Z 23003KT 13/M04 A3005 RMK A01 T01341042  RH  029%=      5-min Rain = 0
KSB1 190957Z 23003KT 13/M04 A3005 RMK A01 T01331042  RH  029%=      5-min Rain = 0
KSB1 190958Z 23003KT 13/M04 A3005 RMK A01 T01331042  RH  029%=      5-min Rain = 0
KSB1 190959Z 24003KT 13/M04 A3005 RMK A01 T01321042  RH  030%=      5-min Rain = 0
KSB1 191000Z 24003KT 13/M04 A3005 RMK A01 T01321042  RH  030%=      5-min Rain = 0
KSB1 191001Z 24004KT 13/M04 A3005 RMK A01 T01311041  RH  030%=      5-min Rain = 0
KSB1 191002Z 24004KT 13/M04 A3005 RMK A01 T01301042  RH  030%=      5-min Rain = 0
KSB1 191003Z 24004KT 13/M04 A3005 RMK A01 T01291041  RH  030%=      5-min Rain = 0
KSB1 191004Z 23004KT 13/M04 A3005 RMK A01 T01271041  RH  031%=      5-min Rain = 0
KSB1 191005Z 24004KT 13/M04 A3005 RMK A01 T01251041  RH  031%=      5-min Rain = 0
KSB1 191006Z 25004KT 12/M04 A3005 RMK A01 T01241041  RH  031%=      5-min Rain = 0
KSB1 191007Z 25004KT 12/M04 A3005 RMK A01 T01231040  RH  032%=      5-min Rain = 0
KSB1 191008Z 25004KT 12/M04 A3005 RMK A01 T01221040  RH  032%=      5-min Rain = 0
KSB1 191009Z 25004KT 12/M04 A3005 RMK A01 T01231040  RH  032%=      5-min Rain = 0
KSB1 191010Z 25005KT 12/M04 A3005 RMK A01 T01231039  RH  032%=      5-min Rain = 0
KSB1 191011Z 25004KT 12/M04 A3005 RMK A01 T01221039  RH  032%=      5-min Rain = 0
KSB1 191012Z 25004KT 12/M04 A3005 RMK A01 T01221040  RH  032%=      5-min Rain = 0
KSB1 191013Z 25004KT 12/M04 A3005 RMK A01 T01231040  RH  032%=      5-min Rain = 0
KSB1 191014Z 25004KT 12/M04 A3005 RMK A01 T01241040  RH  032%=      5-min Rain = 0
KSB1 191015Z 25004KT 13/M04 A3005 RMK A01 T01251039  RH  032%=      5-min Rain = 0
KSB1 191016Z 25004KT 13/M04 A3005 RMK A01 T01261039  RH  031%=      5-min Rain = 0
KSB1 191017Z 25004KT 13/M04 A3005 RMK A01 T01271039  RH  031%=      5-min Rain = 0
KSB1 191018Z 25004KT 13/M04 A3005 RMK A01 T01281040  RH  031%=      5-min Rain = 0
KSB1 191019Z 24004KT 13/M04 A3005 RMK A01 T01301040  RH  031%=      5-min Rain = 0
KSB1 191020Z 23003KT 13/M04 A3005 RMK A01 T01321039  RH  030%=      5-min Rain = 0
KSB1 191021Z 23004KT 14/M04 A3005 RMK A01 T01351039  RH  030%=      5-min Rain = 0
KSB1 191022Z 22004KT 14/M04 A3005 RMK A01 T01351040  RH  029%=      5-min Rain = 0
KSB1 191023Z 23004KT 13/M04 A3005 RMK A01 T01341040  RH  030%=      5-min Rain = 0
KSB1 191024Z 23004KT 13/M04 A3005 RMK A01 T01331040  RH  030%=      5-min Rain = 0
KSB1 191025Z 23004KT 13/M04 A3005 RMK A01 T01321041  RH  030%=      5-min Rain = 0
KSB1 191026Z 23003KT 13/M04 A3005 RMK A01 T01311040  RH  030%=      5-min Rain = 0
KSB1 191027Z 23004KT 13/M04 A3005 RMK A01 T01291041  RH  030%=      5-min Rain = 0
KSB1 191028Z 23003KT 13/M04 A3005 RMK A01 T01281041  RH  031%=      5-min Rain = 0
KSB1 191029Z 24003KT 13/M04 A3005 RMK A01 T01271040  RH  031%=      5-min Rain = 0
KSB1 191030Z 23003KT 13/M04 A3005 RMK A01 T01261041  RH  031%=      5-min Rain = 0
KSB1 191031Z 22004KT 13/M04 A3005 RMK A01 T01251041  RH  031%=      5-min Rain = 0
KSB1 191032Z 22004KT 12/M04 A3005 RMK A01 T01211041  RH  032%=      5-min Rain = 0
KSB1 191033Z 22004KT 12/M04 A3005 RMK A01 T01171042  RH  033%=      5-min Rain = 0
KSB1 191034Z 22004KT 12/M04 A3005 RMK A01 T01151041  RH  033%=      5-min Rain = 0
KSB1 191035Z 23004KT 11/M04 A3005 RMK A01 T01131041  RH  034%=      5-min Rain = 0
KSB1 191036Z 24004KT 11/M04 A3005 RMK A01 T01121041  RH  034%=      5-min Rain = 0
KSB1 191037Z 24005KT 11/M04 A3005 RMK A01 T01111041  RH  034%=      5-min Rain = 0
KSB1 191038Z 24004KT 11/M04 A3005 RMK A01 T01111041  RH  034%=      5-min Rain = 0
KSB1 191039Z 23004KT 11/M04 A3005 RMK A01 T01131040  RH  034%=      5-min Rain = 0
KSB1 191040Z 23004KT 12/M04 A3005 RMK A01 T01151041  RH  033%=      5-min Rain = 0
KSB1 191041Z 23003KT 12/M04 A3005 RMK A01 T01161040  RH  033%=      5-min Rain = 0
KSB1 191042Z 23003KT 12/M04 A3005 RMK A01 T01161040  RH  033%=      5-min Rain = 0
KSB1 191043Z 26002KT 12/M04 A3005 RMK A01 T01151039  RH  034%=      5-min Rain = 0
KSB1 191044Z 28001KT 11/M04 A3005 RMK A01 T01121039  RH  034%=      5-min Rain = 0
KSB1 191045Z 28002KT 11/M04 A3005 RMK A01 T01101039  RH  035%=      5-min Rain = 0
KSB1 191046Z 26004KT 11/M04 A3005 RMK A01 T01101039  RH  035%=      5-min Rain = 0
KSB1 191047Z 25004KT 11/M04 A3005 RMK A01 T01111040  RH  034%=      5-min Rain = 0
KSB1 191048Z 25003KT 11/M04 A3005 RMK A01 T01141040  RH  034%=      5-min Rain = 0
KSB1 191049Z 25004KT 12/M04 A3005 RMK A01 T01171039  RH  033%=      5-min Rain = 0
KSB1 191050Z 25004KT 12/M04 A3005 RMK A01 T01211039  RH  033%=      5-min Rain = 0
KSB1 191051Z 24003KT 12/M04 A3005 RMK A01 T01231039  RH  032%=      5-min Rain = 0
KSB1 191052Z 15002KT 12/M04 A3005 RMK A01 T01211040  RH  032%=      5-min Rain = 0
KSB1 191053Z 22002KT 12/M04 A3005 RMK A01 T01161041  RH  033%=      5-min Rain = 0
KSB1 191054Z 14002KT 11/M04 A3005 RMK A01 T01141040  RH  034%=      5-min Rain = 0
KSB1 191055Z 12001KT 11/M04 A3005 RMK A01 T01061040  RH  035%=      5-min Rain = 0
KSB1 191056Z 13001KT 10/M04 A3005 RMK A01 T00961041  RH  038%=      5-min Rain = 0
KSB1 191057Z 12000KT 09/M04 A3005 RMK A01 T00891039  RH  040%=      5-min Rain = 0
KSB1 191058Z 12000KT 09/M04 A3004 RMK A01 T00881039  RH  041%=      5-min Rain = 0
KSB1 191059Z 00000KT 09/M04 A3004 RMK A01 T00921040  RH  039%=      5-min Rain = 0
KSB1 191100Z 00000KT 10/M04 A3004 RMK A01 T00961039  RH  038%=      5-min Rain = 0
KSB1 191101Z 07001KT 10/M04 A3004 RMK A01 T01011039  RH  037%=      5-min Rain = 0
KSB1 191102Z 05002KT 11/M04 A3004 RMK A01 T01061038  RH  036%=      5-min Rain = 0
KSB1 191103Z 04003KT 11/M04 A3004 RMK A01 T01081038  RH  036%=      5-min Rain = 0
KSB1 191104Z 04004KT 11/M04 A3005 RMK A01 T01091037  RH  036%=      5-min Rain = 0
KSB1 191105Z 04004KT 11/M04 A3005 RMK A01 T01051037  RH  037%=      5-min Rain = 0
KSB1 191106Z 03004KT 10/M04 A3005 RMK A01 T01031036  RH  037%=      5-min Rain = 0
KSB1 191107Z 02004KT 10/M04 A3005 RMK A01 T01021036  RH  038%=      5-min Rain = 0
KSB1 191108Z 01004KT 10/M04 A3005 RMK A01 T00991036  RH  039%=      5-min Rain = 0
KSB1 191109Z 01003KT 10/M04 A3004 RMK A01 T00961035  RH  039%=      5-min Rain = 0
KSB1 191110Z 01004KT 09/M04 A3004 RMK A01 T00931035  RH  040%=      5-min Rain = 0
KSB1 191111Z 01003KT 09/M04 A3004 RMK A01 T00911035  RH  041%=      5-min Rain = 0
KSB1 191112Z 00004KT 09/M04 A3004 RMK A01 T00891035  RH  042%=      5-min Rain = 0
KSB1 191113Z 36004KT 09/M04 A3004 RMK A01 T00891035  RH  041%=      5-min Rain = 0
KSB1 191114Z 35006KT 09/M04 A3004 RMK A01 T00911035  RH  041%=      5-min Rain = 0
KSB1 191115Z 35006KT 09/M04 A3004 RMK A01 T00921035  RH  041%=      5-min Rain = 0
KSB1 191116Z 35006KT 09/M04 A3004 RMK A01 T00931035  RH  041%=      5-min Rain = 0
KSB1 191117Z 36006KT 09/M04 A3004 RMK A01 T00931035  RH  041%=      5-min Rain = 0
KSB1 191118Z 35006KT 09/M03 A3004 RMK A01 T00931034  RH  041%=      5-min Rain = 0
KSB1 191119Z 00005KT 09/M03 A3004 RMK A01 T00881034  RH  042%=      5-min Rain = 0
KSB1 191120Z 00005KT 08/M03 A3004 RMK A01 T00831034  RH  043%=      5-min Rain = 0
KSB1 191121Z 01006KT 08/M03 A3004 RMK A01 T00801034  RH  044%=      5-min Rain = 0
KSB1 191122Z 01006KT 08/M03 A3004 RMK A01 T00771034  RH  045%=      5-min Rain = 0
KSB1 191123Z 01006KT 08/M03 A3004 RMK A01 T00751034  RH  046%=      5-min Rain = 0
KSB1 191124Z 01006KT 07/M03 A3004 RMK A01 T00741034  RH  047%=      5-min Rain = 0
KSB1 191125Z 01006KT 07/M04 A3004 RMK A01 T00731035  RH  046%=      5-min Rain = 0
KSB1 191126Z 01006KT 08/M04 A3004 RMK A01 T00751035  RH  045%=      5-min Rain = 0
KSB1 191127Z 01005KT 08/M04 A3004 RMK A01 T00761036  RH  045%=      5-min Rain = 0
KSB1 191128Z 01005KT 08/M04 A3004 RMK A01 T00781036  RH  044%=      5-min Rain = 0
KSB1 191129Z 01005KT 08/M04 A3004 RMK A01 T00801037  RH  043%=      5-min Rain = 0
KSB1 191130Z 01005KT 08/M04 A3004 RMK A01 T00821037  RH  043%=      5-min Rain = 0
KSB1 191131Z 01005KT 08/M04 A3004 RMK A01 T00831038  RH  042%=      5-min Rain = 0
KSB1 191132Z 02005KT 09/M04 A3004 RMK A01 T00851039  RH  042%=      5-min Rain = 0
KSB1 191133Z 02005KT 09/M04 A3004 RMK A01 T00861039  RH  041%=      5-min Rain = 0
KSB1 191134Z 02005KT 09/M04 A3004 RMK A01 T00871039  RH  041%=      5-min Rain = 0
KSB1 191135Z 02005KT 09/M04 A3004 RMK A01 T00881039  RH  040%=      5-min Rain = 0
KSB1 191136Z 02005KT 09/M04 A3004 RMK A01 T00891039  RH  040%=      5-min Rain = 0
KSB1 191137Z 02005KT 09/M04 A3004 RMK A01 T00891040  RH  040%=      5-min Rain = 0
KSB1 191138Z 02005KT 09/M04 A3004 RMK A01 T00891040  RH  040%=      5-min Rain = 0
KSB1 191139Z 01004KT 09/M04 A3004 RMK A01 T00891039  RH  040%=      5-min Rain = 0
KSB1 191140Z 02005KT 09/M04 A3004 RMK A01 T00881039  RH  040%=      5-min Rain = 0
KSB1 191141Z 02005KT 09/M04 A3004 RMK A01 T00871039  RH  041%=      5-min Rain = 0
KSB1 191142Z 02005KT 09/M04 A3004 RMK A01 T00871039  RH  041%=      5-min Rain = 0
KSB1 191143Z 02005KT 09/M04 A3004 RMK A01 T00861040  RH  041%=      5-min Rain = 0
KSB1 191144Z 03005KT 09/M04 A3004 RMK A01 T00861040  RH  041%=      5-min Rain = 0
KSB1 191145Z 03005KT 09/M04 A3004 RMK A01 T00861039  RH  041%=      5-min Rain = 0
KSB1 191146Z 03005KT 09/M04 A3004 RMK A01 T00851040  RH  041%=      5-min Rain = 0
KSB1 191147Z 03005KT 09/M04 A3004 RMK A01 T00851040  RH  041%=      5-min Rain = 0
KSB1 191148Z 03004KT 08/M04 A3004 RMK A01 T00841041  RH  041%=      5-min Rain = 0
KSB1 191149Z 03004KT 08/M04 A3004 RMK A01 T00841041  RH  041%=      5-min Rain = 0
KSB1 191150Z 03004KT 08/M04 A3004 RMK A01 T00831041  RH  041%=      5-min Rain = 0
KSB1 191151Z 03004KT 08/M04 A3004 RMK A01 T00841041  RH  041%=      5-min Rain = 0
KSB1 191152Z 03004KT 08/M04 A3004 RMK A01 T00841042  RH  041%=      5-min Rain = 0
KSB1 191153Z 03004KT 09/M04 A3004 RMK A01 T00851042  RH  040%=      5-min Rain = 0
KSB1 191154Z 03004KT 09/M04 A3004 RMK A01 T00861042  RH  040%=      5-min Rain = 0
KSB1 191155Z 03004KT 09/M04 A3004 RMK A01 T00861042  RH  040%=      5-min Rain = 0
KSB1 191156Z 02004KT 09/M04 A3004 RMK A01 T00861042  RH  040%=      5-min Rain = 0
KSB1 191157Z 03004KT 09/M04 A3004 RMK A01 T00861042  RH  040%=      5-min Rain = 0
KSB1 191158Z 03004KT 09/M04 A3004 RMK A01 T00871042  RH  040%=      5-min Rain = 0
KSB1 191159Z 03004KT 09/M04 A3004 RMK A01 T00881042  RH  040%=      5-min Rain = 0
KSB1 191200Z 02004KT 09/M04 A3004 RMK A01 T00881042  RH  040%=      5-min Rain = 0
KSB1 191201Z 02004KT 09/M04 A3004 RMK A01 T00881042  RH  040%=      5-min Rain = 0
KSB1 191202Z 02004KT 09/M04 A3004 RMK A01 T00881042  RH  039%=      5-min Rain = 0
KSB1 191203Z 02004KT 09/M04 A3004 RMK A01 T00891042  RH  039%=      5-min Rain = 0
KSB1 191204Z 02004KT 09/M04 A3004 RMK A01 T00891042  RH  039%=      5-min Rain = 0
KSB1 191205Z 02003KT 09/M04 A3004 RMK A01 T00891042  RH  039%=      5-min Rain = 0
KSB1 191206Z 02004KT 09/M04 A3004 RMK A01 T00901042  RH  039%=      5-min Rain = 0
KSB1 191207Z 02003KT 09/M04 A3004 RMK A01 T00921043  RH  039%=      5-min Rain = 0
KSB1 191208Z 02003KT 09/M04 A3004 RMK A01 T00931042  RH  038%=      5-min Rain = 0
KSB1 191209Z 02002KT 09/M04 A3004 RMK A01 T00931043  RH  038%=      5-min Rain = 0
KSB1 191210Z 02002KT 09/M04 A3004 RMK A01 T00941042  RH  038%=      5-min Rain = 0
KSB1 191211Z 02002KT 09/M04 A3004 RMK A01 T00941042  RH  038%=      5-min Rain = 0
KSB1 191212Z 01001KT 09/M04 A3004 RMK A01 T00941042  RH  038%=      5-min Rain = 0
KSB1 191213Z 01001KT 09/M04 A3004 RMK A01 T00931042  RH  038%=      5-min Rain = 0
KSB1 191214Z 03001KT 09/M04 A3004 RMK A01 T00921042  RH  038%=      5-min Rain = 0
KSB1 191215Z 04001KT 09/M04 A3004 RMK A01 T00921043  RH  038%=      5-min Rain = 0
KSB1 191216Z 05002KT 09/M04 A3004 RMK A01 T00931043  RH  038%=      5-min Rain = 0
KSB1 191217Z 06002KT 10/M04 A3004 RMK A01 T00951043  RH  038%=      5-min Rain = 0
KSB1 191218Z 07002KT 10/M04 A3004 RMK A01 T00961043  RH  037%=      5-min Rain = 0
KSB1 191219Z 05002KT 10/M04 A3004 RMK A01 T00961043  RH  037%=      5-min Rain = 0
KSB1 191220Z 04001KT 10/M04 A3004 RMK A01 T00971043  RH  037%=      5-min Rain = 0
KSB1 191221Z 03002KT 10/M04 A3004 RMK A01 T00971043  RH  037%=      5-min Rain = 0
KSB1 191222Z 02002KT 10/M04 A3004 RMK A01 T00961043  RH  037%=      5-min Rain = 0
KSB1 191223Z 02003KT 10/M04 A3004 RMK A01 T00961043  RH  037%=      5-min Rain = 0
KSB1 191224Z 02004KT 10/M04 A3004 RMK A01 T00961043  RH  037%=      5-min Rain = 0
KSB1 191225Z 02003KT 10/M04 A3004 RMK A01 T00961043  RH  037%=      5-min Rain = 0
KSB1 191226Z 02003KT 10/M04 A3004 RMK A01 T00961043  RH  037%=      5-min Rain = 0
KSB1 191227Z 02003KT 10/M04 A3004 RMK A01 T00961043  RH  037%=      5-min Rain = 0
KSB1 191228Z 02003KT 10/M04 A3004 RMK A01 T00961043  RH  037%=      5-min Rain = 0
KSB1 191229Z 02003KT 10/M04 A3004 RMK A01 T00961043  RH  037%=      5-min Rain = 0
KSB1 191230Z 01003KT 10/M04 A3004 RMK A01 T00961043  RH  037%=      5-min Rain = 0
KSB1 191231Z 02003KT 10/M04 A3004 RMK A01 T00961044  RH  037%=      5-min Rain = 0
KSB1 191232Z 02003KT 10/M04 A3004 RMK A01 T00961044  RH  037%=      5-min Rain = 0
KSB1 191233Z 03003KT 10/M04 A3004 RMK A01 T00961043  RH  037%=      5-min Rain = 0
KSB1 191234Z 03003KT 10/M04 A3004 RMK A01 T00951043  RH  037%=      5-min Rain = 0
KSB1 191235Z 03003KT 10/M04 A3004 RMK A01 T00951043  RH  037%=      5-min Rain = 0
KSB1 191236Z 03003KT 10/M04 A3004 RMK A01 T00961044  RH  037%=      5-min Rain = 0
KSB1 191237Z 03003KT 10/M04 A3004 RMK A01 T00961043  RH  037%=      5-min Rain = 0
KSB1 191238Z 02002KT 10/M04 A3004 RMK A01 T00961044  RH  037%=      5-min Rain = 0
KSB1 191239Z 03002KT 10/M04 A3004 RMK A01 T00971044  RH  037%=      5-min Rain = 0
KSB1 191240Z 03002KT 10/M04 A3004 RMK A01 T00981043  RH  037%=      5-min Rain = 0
KSB1 191241Z 03002KT 10/M04 A3004 RMK A01 T00981043  RH  037%=      5-min Rain = 0
KSB1 191242Z 02002KT 10/M04 A3004 RMK A01 T00981043  RH  037%=      5-min Rain = 0
KSB1 191243Z 01002KT 10/M04 A3004 RMK A01 T00971044  RH  037%=      5-min Rain = 0
KSB1 191244Z 36002KT 10/M04 A3004 RMK A01 T00971044  RH  037%=      5-min Rain = 0
KSB1 191245Z 34002KT 10/M04 A3004 RMK A01 T00971044  RH  037%=      5-min Rain = 0
KSB1 191246Z 33001KT 10/M04 A3004 RMK A01 T00971044  RH  037%=      5-min Rain = 0
KSB1 191247Z 31001KT 10/M04 A3004 RMK A01 T00991044  RH  036%=      5-min Rain = 0
KSB1 191248Z 30001KT 10/M04 A3004 RMK A01 T01001044  RH  036%=      5-min Rain = 0
KSB1 191249Z 30002KT 10/M04 A3004 RMK A01 T01021044  RH  035%=      5-min Rain = 0
KSB1 191250Z 28002KT 10/M04 A3005 RMK A01 T01041044  RH  035%=      5-min Rain = 0
KSB1 191251Z 27002KT 11/M04 A3005 RMK A01 T01051044  RH  035%=      5-min Rain = 0
KSB1 191252Z 27002KT 11/M04 A3005 RMK A01 T01071043  RH  034%=      5-min Rain = 0
KSB1 191253Z 26002KT 11/M04 A3005 RMK A01 T01101042  RH  034%=      5-min Rain = 0
KSB1 191254Z 24002KT 11/M04 A3005 RMK A01 T01111042  RH  034%=      5-min Rain = 0
KSB1 191255Z 24002KT 11/M04 A3005 RMK A01 T01131041  RH  034%=      5-min Rain = 0
KSB1 191256Z 23002KT 12/M04 A3005 RMK A01 T01151041  RH  033%=      5-min Rain = 0
KSB1 191257Z 22002KT 12/M04 A3005 RMK A01 T01161041  RH  033%=      5-min Rain = 0
KSB1 191258Z 22002KT 12/M04 A3005 RMK A01 T01161041  RH  033%=      5-min Rain = 0
KSB1 191259Z 23002KT 12/M04 A3005 RMK A01 T01161042  RH  033%=      5-min Rain = 0
KSB1 191300Z 23002KT 12/M04 A3005 RMK A01 T01171042  RH  033%=      5-min Rain = 0
KSB1 191301Z 22002KT 12/M04 A3005 RMK A01 T01171042  RH  033%=      5-min Rain = 0
KSB1 191302Z 23001KT 12/M04 A3005 RMK A01 T01161042  RH  033%=      5-min Rain = 0
KSB1 191303Z 23001KT 12/M04 A3005 RMK A01 T01161042  RH  033%=      5-min Rain = 0
KSB1 191304Z 22001KT 12/M04 A3005 RMK A01 T01151041  RH  033%=      5-min Rain = 0
KSB1 191305Z 20000KT 11/M04 A3005 RMK A01 T01141041  RH  033%=      5-min Rain = 0
KSB1 191306Z 24000KT 11/M04 A3005 RMK A01 T01141041  RH  033%=      5-min Rain = 0
KSB1 191307Z 26001KT 11/M04 A3005 RMK A01 T01141041  RH  033%=      5-min Rain = 0
KSB1 191308Z 26001KT 12/M04 A3005 RMK A01 T01151041  RH  033%=      5-min Rain = 0
KSB1 191309Z 27002KT 12/M04 A3005 RMK A01 T01151041  RH  033%=      5-min Rain = 0
KSB1 191310Z 27002KT 11/M04 A3005 RMK A01 T01141040  RH  034%=      5-min Rain = 0
KSB1 191311Z 26002KT 11/M04 A3005 RMK A01 T01121040  RH  034%=      5-min Rain = 0
KSB1 191312Z 26003KT 11/M04 A3005 RMK A01 T01101041  RH  034%=      5-min Rain = 0
KSB1 191313Z 25003KT 11/M04 A3005 RMK A01 T01081041  RH  035%=      5-min Rain = 0
KSB1 191314Z 25003KT 11/M04 A3005 RMK A01 T01071041  RH  035%=      5-min Rain = 0
KSB1 191315Z 25003KT 11/M04 A3005 RMK A01 T01061040  RH  036%=      5-min Rain = 0
KSB1 191316Z 25003KT 11/M04 A3005 RMK A01 T01051040  RH  036%=      5-min Rain = 0
KSB1 191317Z 25002KT 11/M04 A3005 RMK A01 T01051040  RH  036%=      5-min Rain = 0
KSB1 191318Z 24002KT 11/M04 A3005 RMK A01 T01051040  RH  036%=      5-min Rain = 0
KSB1 191319Z 24001KT 11/M04 A3005 RMK A01 T01071040  RH  035%=      5-min Rain = 0
KSB1 191320Z 22001KT 11/M04 A3005 RMK A01 T01081040  RH  035%=      5-min Rain = 0
KSB1 191321Z 20001KT 11/M04 A3005 RMK A01 T01101039  RH  035%=      5-min Rain = 0
KSB1 191322Z 19001KT 11/M04 A3005 RMK A01 T01121039  RH  035%=      5-min Rain = 0
KSB1 191323Z 19001KT 11/M04 A3005 RMK A01 T01131039  RH  034%=      5-min Rain = 0
KSB1 191324Z 19001KT 11/M04 A3005 RMK A01 T01141040  RH  034%=      5-min Rain = 0
KSB1 191325Z 18001KT 11/M04 A3005 RMK A01 T01131040  RH  034%=      5-min Rain = 0
KSB1 191326Z 18001KT 11/M04 A3005 RMK A01 T01121041  RH  034%=      5-min Rain = 0
KSB1 191327Z 19001KT 11/M04 A3005 RMK A01 T01111040  RH  034%=      5-min Rain = 0
KSB1 191328Z 21001KT 11/M04 A3005 RMK A01 T01101041  RH  034%=      5-min Rain = 0
KSB1 191329Z 22001KT 11/M04 A3005 RMK A01 T01101041  RH  034%=      5-min Rain = 0
KSB1 191330Z 24001KT 11/M04 A3005 RMK A01 T01101041  RH  035%=      5-min Rain = 0
KSB1 191331Z 25001KT 11/M04 A3005 RMK A01 T01101040  RH  035%=      5-min Rain = 0
KSB1 191332Z 26002KT 11/M04 A3005 RMK A01 T01101040  RH  035%=      5-min Rain = 0
KSB1 191333Z 26003KT 11/M04 A3006 RMK A01 T01101041  RH  034%=      5-min Rain = 0
KSB1 191334Z 25003KT 11/M04 A3006 RMK A01 T01111040  RH  034%=      5-min Rain = 0
KSB1 191335Z 26003KT 11/M04 A3006 RMK A01 T01121040  RH  034%=      5-min Rain = 0
KSB1 191336Z 26003KT 11/M04 A3006 RMK A01 T01131040  RH  034%=      5-min Rain = 0
KSB1 191337Z 27003KT 11/M04 A3006 RMK A01 T01131041  RH  034%=      5-min Rain = 0
KSB1 191338Z 26003KT 11/M04 A3006 RMK A01 T01131041  RH  034%=      5-min Rain = 0
KSB1 191339Z 27003KT 11/M04 A3006 RMK A01 T01131041  RH  034%=      5-min Rain = 0
KSB1 191340Z 26003KT 11/M04 A3006 RMK A01 T01131041  RH  034%=      5-min Rain = 0
KSB1 191341Z 26004KT 11/M04 A3006 RMK A01 T01141040  RH  034%=      5-min Rain = 0
KSB1 191342Z 26004KT 12/M04 A3006 RMK A01 T01161040  RH  033%=      5-min Rain = 0
KSB1 191343Z 25004KT 12/M04 A3006 RMK A01 T01161040  RH  033%=      5-min Rain = 0
KSB1 191344Z 26004KT 12/M04 A3006 RMK A01 T01161041  RH  033%=      5-min Rain = 0
KSB1 191345Z 25004KT 12/M04 A3006 RMK A01 T01171040  RH  033%=      5-min Rain = 0
KSB1 191346Z 25004KT 12/M04 A3006 RMK A01 T01161040  RH  033%=      5-min Rain = 0
KSB1 191347Z 25003KT 12/M04 A3006 RMK A01 T01151041  RH  033%=      5-min Rain = 0
KSB1 191348Z 25003KT 11/M04 A3006 RMK A01 T01131040  RH  034%=      5-min Rain = 0
KSB1 191349Z 25003KT 11/M04 A3006 RMK A01 T01121040  RH  034%=      5-min Rain = 0
KSB1 191350Z 26003KT 11/M04 A3006 RMK A01 T01111040  RH  034%=      5-min Rain = 0
KSB1 191351Z 26003KT 11/M04 A3006 RMK A01 T01121040  RH  034%=      5-min Rain = 0
KSB1 191352Z 26003KT 11/M04 A3006 RMK A01 T01121040  RH  034%=      5-min Rain = 0
KSB1 191353Z 26002KT 11/M04 A3006 RMK A01 T01131040  RH  034%=      5-min Rain = 0
KSB1 191354Z 26002KT 11/M04 A3006 RMK A01 T01131040  RH  034%=      5-min Rain = 0
KSB1 191355Z 27003KT 11/M04 A3006 RMK A01 T01121039  RH  034%=      5-min Rain = 0
KSB1 191356Z 26002KT 11/M04 A3006 RMK A01 T01111040  RH  035%=      5-min Rain = 0
KSB1 191357Z 27002KT 11/M04 A3006 RMK A01 T01111040  RH  035%=      5-min Rain = 0
KSB1 191358Z 26003KT 11/M04 A3006 RMK A01 T01121040  RH  034%=      5-min Rain = 0
KSB1 191359Z 26002KT 11/M04 A3006 RMK A01 T01141040  RH  034%=      5-min Rain = 0
KSB1 191400Z 25002KT 12/M04 A3006 RMK A01 T01161039  RH  033%=      5-min Rain = 0
KSB1 191401Z 25001KT 12/M04 A3007 RMK A01 T01181039  RH  033%=      5-min Rain = 0
KSB1 191402Z 24001KT 12/M04 A3007 RMK A01 T01191039  RH  033%=      5-min Rain = 0
KSB1 191403Z 24001KT 12/M04 A3007 RMK A01 T01211039  RH  032%=      5-min Rain = 0
KSB1 191404Z 24001KT 12/M04 A3007 RMK A01 T01231039  RH  032%=      5-min Rain = 0
KSB1 191405Z 23000KT 12/M04 A3007 RMK A01 T01241039  RH  032%=      5-min Rain = 0
KSB1 191406Z 00000KT 12/M04 A3007 RMK A01 T01241039  RH  032%=      5-min Rain = 0
KSB1 191407Z 00000KT 12/M04 A3007 RMK A01 T01231039  RH  032%=      5-min Rain = 0
KSB1 191408Z 05001KT 12/M04 A3007 RMK A01 T01231039  RH  032%=      5-min Rain = 0
KSB1 191409Z 06002KT 12/M04 A3007 RMK A01 T01211039  RH  033%=      5-min Rain = 0
KSB1 191410Z 06002KT 12/M04 A3007 RMK A01 T01201037  RH  033%=      5-min Rain = 0
KSB1 191411Z 05002KT 12/M04 A3007 RMK A01 T01201036  RH  033%=      5-min Rain = 0
KSB1 191412Z 04002KT 12/M04 A3007 RMK A01 T01191038  RH  033%=      5-min Rain = 0
KSB1 191413Z 04002KT 12/M04 A3007 RMK A01 T01181037  RH  033%=      5-min Rain = 0
KSB1 191414Z 05002KT 12/M04 A3007 RMK A01 T01181036  RH  034%=      5-min Rain = 0
KSB1 191415Z 05002KT 12/M04 A3007 RMK A01 T01181037  RH  034%=      5-min Rain = 0
KSB1 191416Z 06003KT 12/M04 A3007 RMK A01 T01181037  RH  033%=      5-min Rain = 0
KSB1 191417Z 05002KT 12/M04 A3007 RMK A01 T01181037  RH  034%=      5-min Rain = 0
KSB1 191418Z 05002KT 12/M04 A3007 RMK A01 T01181037  RH  034%=      5-min Rain = 0
KSB1 191419Z 05002KT 12/M04 A3007 RMK A01 T01181036  RH  034%=      5-min Rain = 0
KSB1 191420Z 06002KT 12/M04 A3007 RMK A01 T01181036  RH  034%=      5-min Rain = 0
KSB1 191421Z 07002KT 12/M04 A3007 RMK A01 T01171036  RH  034%=      5-min Rain = 0
KSB1 191422Z 07002KT 12/M04 A3007 RMK A01 T01171035  RH  034%=      5-min Rain = 0
KSB1 191423Z 07002KT 12/M04 A3007 RMK A01 T01161037  RH  034%=      5-min Rain = 0
KSB1 191424Z 07002KT 12/M04 A3007 RMK A01 T01161036  RH  034%=      5-min Rain = 0
KSB1 191425Z 08002KT 12/M03 A3007 RMK A01 T01151033  RH  035%=      5-min Rain = 0
KSB1 191426Z 07002KT 11/M03 A3007 RMK A01 T01141034  RH  035%=      5-min Rain = 0
KSB1 191427Z 06002KT 11/M04 A3007 RMK A01 T01141035  RH  035%=      5-min Rain = 0
KSB1 191428Z 06002KT 11/M04 A3007 RMK A01 T01141035  RH  035%=      5-min Rain = 0
KSB1 191429Z 05003KT 11/M03 A3007 RMK A01 T01131033  RH  036%=      5-min Rain = 0
KSB1 191430Z 05003KT 11/M03 A3007 RMK A01 T01111029  RH  037%=      5-min Rain = 0
KSB1 191431Z 05003KT 11/M03 A3007 RMK A01 T01081027  RH  039%=      5-min Rain = 0
KSB1 191432Z 05003KT 11/M03 A3007 RMK A01 T01051027  RH  040%=      5-min Rain = 0
KSB1 191433Z 04003KT 10/M03 A3008 RMK A01 T01021028  RH  040%=      5-min Rain = 0
KSB1 191434Z 03003KT 10/M03 A3008 RMK A01 T00991029  RH  041%=      5-min Rain = 0
KSB1 191435Z 03003KT 10/M03 A3008 RMK A01 T00981028  RH  041%=      5-min Rain = 0
KSB1 191436Z 03003KT 10/M03 A3008 RMK A01 T00981030  RH  041%=      5-min Rain = 0
KSB1 191437Z 04003KT 10/M03 A3008 RMK A01 T00981030  RH  040%=      5-min Rain = 0
KSB1 191438Z 04003KT 10/M03 A3008 RMK A01 T00991029  RH  041%=      5-min Rain = 0
KSB1 191439Z 03003KT 10/M03 A3008 RMK A01 T00981029  RH  041%=      5-min Rain = 0
KSB1 191440Z 03003KT 10/M03 A3008 RMK A01 T00981029  RH  041%=      5-min Rain = 0
KSB1 191441Z 03003KT 10/M03 A3008 RMK A01 T00981029  RH  041%=      5-min Rain = 0
KSB1 191442Z 03003KT 10/M03 A3008 RMK A01 T01001028  RH  041%=      5-min Rain = 0
KSB1 191443Z 04002KT 10/M03 A3008 RMK A01 T01001029  RH  040%=      5-min Rain = 0
KSB1 191444Z 03002KT 10/M03 A3008 RMK A01 T01011029  RH  040%=      5-min Rain = 0
KSB1 191445Z 03001KT 10/M03 A3008 RMK A01 T01021028  RH  040%=      5-min Rain = 0
KSB1 191446Z 03001KT 10/M03 A3008 RMK A01 T01031028  RH  040%=      5-min Rain = 0
KSB1 191447Z 02001KT 10/M03 A3008 RMK A01 T01041029  RH  039%=      5-min Rain = 0
KSB1 191448Z 03001KT 10/M03 A3008 RMK A01 T01041031  RH  039%=      5-min Rain = 0
KSB1 191449Z 04001KT 11/M03 A3008 RMK A01 T01051030  RH  039%=      5-min Rain = 0
KSB1 191450Z 03002KT 11/M03 A3008 RMK A01 T01061033  RH  038%=      5-min Rain = 0
KSB1 191451Z 03002KT 11/M03 A3008 RMK A01 T01061034  RH  037%=      5-min Rain = 0
KSB1 191452Z 03001KT 11/M04 A3008 RMK A01 T01061035  RH  037%=      5-min Rain = 0
KSB1 191453Z 03002KT 11/M04 A3008 RMK A01 T01061036  RH  037%=      5-min Rain = 0
KSB1 191454Z 02002KT 11/M04 A3008 RMK A01 T01071037  RH  036%=      5-min Rain = 0
KSB1 191455Z 02002KT 11/M04 A3008 RMK A01 T01071036  RH  036%=      5-min Rain = 0
KSB1 191456Z 03002KT 11/M04 A3008 RMK A01 T01081036  RH  036%=      5-min Rain = 0
KSB1 191457Z 03002KT 11/M04 A3008 RMK A01 T01081035  RH  036%=      5-min Rain = 0
KSB1 191458Z 03001KT 11/M03 A3008 RMK A01 T01101034  RH  036%=      5-min Rain = 0
KSB1 191459Z 03001KT 11/M04 A3008 RMK A01 T01101035  RH  036%=      5-min Rain = 0
KSB1 191500Z 03000KT 11/M04 A3008 RMK A01 T01111035  RH  036%=      5-min Rain = 0
KSB1 191501Z 00000KT 11/M04 A3008 RMK A01 T01121035  RH  035%=      5-min Rain = 0
KSB1 191502Z 00000KT 11/M04 A3008 RMK A01 T01141036  RH  035%=      5-min Rain = 0
KSB1 191503Z 00000KT 12/M04 A3008 RMK A01 T01151035  RH  035%=      5-min Rain = 0
KSB1 191504Z 00000KT 12/M03 A3008 RMK A01 T01171033  RH  035%=      5-min Rain = 0
KSB1 191505Z 00000KT 12/M03 A3008 RMK A01 T01181033  RH  035%=      5-min Rain = 0
KSB1 191506Z 00000KT 12/M03 A3008 RMK A01 T01211030  RH  035%=      5-min Rain = 0
KSB1 191507Z 00000KT 12/M03 A3008 RMK A01 T01241029  RH  034%=      5-min Rain = 0
KSB1 191508Z 00000KT 13/M03 A3008 RMK A01 T01281029  RH  034%=      5-min Rain = 0
KSB1 191509Z 00000KT 13/M03 A3008 RMK A01 T01301030  RH  033%=      5-min Rain = 0
KSB1 191510Z 00000KT 13/M03 A3008 RMK A01 T01321031  RH  032%=      5-min Rain = 0
KSB1 191511Z 00000KT 14/M03 A3008 RMK A01 T01351031  RH  031%=      5-min Rain = 0
KSB1 191512Z 00000KT 14/M03 A3008 RMK A01 T01371030  RH  031%=      5-min Rain = 0
KSB1 191513Z 00000KT 14/M03 A3008 RMK A01 T01401028  RH  031%=      5-min Rain = 0
KSB1 191514Z 00000KT 14/M03 A3008 RMK A01 T01441027  RH  031%=      5-min Rain = 0
KSB1 191515Z 16000KT 15/M03 A3008 RMK A01 T01451028  RH  030%=      5-min Rain = 0
KSB1 191516Z 17001KT 15/M03 A3008 RMK A01 T01481027  RH  030%=      5-min Rain = 0
KSB1 191517Z 18001KT 15/M03 A3008 RMK A01 T01501028  RH  029%=      5-min Rain = 0
KSB1 191518Z 19002KT 15/M03 A3008 RMK A01 T01491030  RH  029%=      5-min Rain = 0
KSB1 191519Z 18002KT 15/M03 A3008 RMK A01 T01471031  RH  029%=      5-min Rain = 0
KSB1 191520Z 19002KT 15/M03 A3008 RMK A01 T01471031  RH  029%=      5-min Rain = 0
KSB1 191521Z 18001KT 15/M03 A3008 RMK A01 T01471030  RH  029%=      5-min Rain = 0
KSB1 191522Z 17001KT 15/M03 A3008 RMK A01 T01481030  RH  029%=      5-min Rain = 0
KSB1 191523Z 17001KT 15/M03 A3008 RMK A01 T01501030  RH  029%=      5-min Rain = 0
KSB1 191524Z 16001KT 15/M03 A3008 RMK A01 T01521029  RH  029%=      5-min Rain = 0
KSB1 191525Z 20001KT 16/M03 A3008 RMK A01 T01551029  RH  028%=      5-min Rain = 0
KSB1 191526Z 14001KT 16/M03 A3008 RMK A01 T01551030  RH  028%=      5-min Rain = 0
KSB1 191527Z 13001KT 16/M03 A3008 RMK A01 T01571029  RH  028%=      5-min Rain = 0
KSB1 191528Z 12001KT 16/M03 A3008 RMK A01 T01591028  RH  028%=      5-min Rain = 0
KSB1 191529Z 13001KT 16/M03 A3008 RMK A01 T01601029  RH  027%=      5-min Rain = 0
KSB1 191530Z 28000KT 16/M03 A3008 RMK A01 T01611031  RH  027%=      5-min Rain = 0
KSB1 191531Z 18000KT 16/M03 A3008 RMK A01 T01611030  RH  027%=      5-min Rain = 0
KSB1 191532Z 19001KT 16/M03 A3008 RMK A01 T01611030  RH  027%=      5-min Rain = 0
KSB1 191533Z 24000KT 16/M03 A3008 RMK A01 T01591032  RH  027%=      5-min Rain = 0
KSB1 191534Z 21001KT 16/M03 A3008 RMK A01 T01601031  RH  027%=      5-min Rain = 0
KSB1 191535Z 20001KT 16/M03 A3008 RMK A01 T01611031  RH  027%=      5-min Rain = 0
KSB1 191536Z 19002KT 16/M03 A3008 RMK A01 T01591032  RH  027%=      5-min Rain = 0
KSB1 191537Z 18002KT 16/M03 A3008 RMK A01 T01591033  RH  027%=      5-min Rain = 0
KSB1 191538Z 19003KT 16/M03 A3008 RMK A01 T01581031  RH  027%=      5-min Rain = 0
KSB1 191539Z 20002KT 16/M03 A3008 RMK A01 T01581030  RH  027%=      5-min Rain = 0
KSB1 191540Z 21002KT 16/M03 A3008 RMK A01 T01571030  RH  027%=      5-min Rain = 0
KSB1 191541Z 18003KT 16/M03 A3008 RMK A01 T01571030  RH  028%=      5-min Rain = 0
KSB1 191542Z 20002KT 16/M03 A3008 RMK A01 T01571031  RH  027%=      5-min Rain = 0
KSB1 191543Z 20002KT 16/M03 A3008 RMK A01 T01571030  RH  028%=      5-min Rain = 0
KSB1 191544Z 19002KT 16/M03 A3008 RMK A01 T01581029  RH  028%=      5-min Rain = 0
KSB1 191545Z 20003KT 16/M03 A3008 RMK A01 T01571030  RH  027%=      5-min Rain = 0
KSB1 191546Z 20003KT 16/M03 A3008 RMK A01 T01581031  RH  027%=      5-min Rain = 0
KSB1 191547Z 17003KT 16/M03 A3008 RMK A01 T01581031  RH  027%=      5-min Rain = 0
KSB1 191548Z 15002KT 16/M03 A3008 RMK A01 T01591032  RH  027%=      5-min Rain = 0
KSB1 191549Z 16002KT 16/M03 A3008 RMK A01 T01621030  RH  027%=      5-min Rain = 0
KSB1 191550Z 16002KT 16/M03 A3008 RMK A01 T01641029  RH  026%=      5-min Rain = 0
KSB1 191551Z 13002KT 17/M03 A3008 RMK A01 T01671029  RH  026%=      5-min Rain = 0
KSB1 191552Z 14002KT 17/M03 A3008 RMK A01 T01691027  RH  026%=      5-min Rain = 0
KSB1 191553Z 14003KT 17/M03 A3008 RMK A01 T01701027  RH  026%=      5-min Rain = 0
KSB1 191554Z 14003KT 17/M03 A3008 RMK A01 T01711029  RH  025%=      5-min Rain = 0
KSB1 191555Z 13003KT 17/M03 A3008 RMK A01 T01691030  RH  025%=      5-min Rain = 0
KSB1 191556Z 14003KT 17/M03 A3008 RMK A01 T01691029  RH  026%=      5-min Rain = 0
KSB1 191557Z 13003KT 17/M03 A3008 RMK A01 T01681031  RH  025%=      5-min Rain = 0
KSB1 191558Z 14003KT 17/M03 A3008 RMK A01 T01671029  RH  026%=      5-min Rain = 0
KSB1 191559Z 14003KT 17/M03 A3008 RMK A01 T01671030  RH  026%=      5-min Rain = 0
KSB1 191600Z 16004KT 17/M03 A3008 RMK A01 T01671029  RH  026%=      5-min Rain = 0
KSB1 191601Z 17003KT 17/M03 A3008 RMK A01 T01681028  RH  026%=      5-min Rain = 0
KSB1 191602Z 20004KT 17/M03 A3008 RMK A01 T01691027  RH  026%=      5-min Rain = 0
KSB1 191603Z 19004KT 17/M03 A3008 RMK A01 T01691029  RH  026%=      5-min Rain = 0
KSB1 191604Z 17004KT 17/M03 A3008 RMK A01 T01691026  RH  026%=      5-min Rain = 0
KSB1 191605Z 18003KT 17/M03 A3008 RMK A01 T01701027  RH  026%=      5-min Rain = 0
KSB1 191606Z 22003KT 17/M03 A3008 RMK A01 T01711026  RH  026%=      5-min Rain = 0
KSB1 191607Z 24004KT 17/M03 A3008 RMK A01 T01731028  RH  025%=      5-min Rain = 0
KSB1 191608Z 22004KT 17/M03 A3008 RMK A01 T01731031  RH  025%=      5-min Rain = 0
KSB1 191609Z 24003KT 17/M03 A3008 RMK A01 T01741032  RH  024%=      5-min Rain = 0
KSB1 191610Z 22003KT 17/M03 A3008 RMK A01 T01741034  RH  024%=      5-min Rain = 0
KSB1 191611Z 18001KT 17/M03 A3008 RMK A01 T01741034  RH  024%=      5-min Rain = 0
KSB1 191612Z 26002KT 18/M03 A3008 RMK A01 T01751032  RH  024%=      5-min Rain = 0
KSB1 191613Z 24004KT 18/M03 A3008 RMK A01 T01771030  RH  024%=      5-min Rain = 0
KSB1 191614Z 22004KT 18/M03 A3008 RMK A01 T01781029  RH  024%=      5-min Rain = 0
KSB1 191615Z 22003KT 18/M03 A3008 RMK A01 T01791031  RH  024%=      5-min Rain = 0
KSB1 191616Z 23004KT 18/M03 A3008 RMK A01 T01791031  RH  024%=      5-min Rain = 0
KSB1 191617Z 23003KT 18/M03 A3008 RMK A01 T01791031  RH  024%=      5-min Rain = 0
KSB1 191618Z 23002KT 18/M03 A3008 RMK A01 T01791031  RH  024%=      5-min Rain = 0
KSB1 191619Z 27003KT 18/M03 A3008 RMK A01 T01791030  RH  024%=      5-min Rain = 0
KSB1 191620Z 25004KT 18/M03 A3008 RMK A01 T01801031  RH  024%=      5-min Rain = 0
KSB1 191621Z 24003KT 18/M03 A3008 RMK A01 T01791032  RH  024%=      5-min Rain = 0
KSB1 191622Z 25003KT 18/M03 A3008 RMK A01 T01791031  RH  024%=      5-min Rain = 0
KSB1 191623Z 26004KT 18/M03 A3008 RMK A01 T01791031  RH  024%=      5-min Rain = 0
KSB1 191624Z 23004KT 18/M03 A3008 RMK A01 T01791031  RH  024%=      5-min Rain = 0
KSB1 191625Z 22002KT 18/M03 A3008 RMK A01 T01791032  RH  023%=      5-min Rain = 0
KSB1 191626Z 25002KT 18/M03 A3008 RMK A01 T01801032  RH  023%=      5-min Rain = 0
KSB1 191627Z 25001KT 18/M03 A3008 RMK A01 T01811031  RH  023%=      5-min Rain = 0
KSB1 191628Z 28002KT 18/M03 A3008 RMK A01 T01831029  RH  023%=      5-min Rain = 0
KSB1 191629Z 29001KT 18/M03 A3008 RMK A01 T01841030  RH  023%=      5-min Rain = 0
KSB1 191630Z 30000KT 19/M03 A3008 RMK A01 T01851030  RH  023%=      5-min Rain = 0
KSB1 191631Z 22002KT 19/M03 A3008 RMK A01 T01881028  RH  023%=      5-min Rain = 0
KSB1 191632Z 25003KT 19/M03 A3008 RMK A01 T01891028  RH  023%=      5-min Rain = 0
KSB1 191633Z 22002KT 19/M03 A3008 RMK A01 T01891032  RH  022%=      5-min Rain = 0
KSB1 191634Z 19001KT 19/M03 A3009 RMK A01 T01871033  RH  022%=      5-min Rain = 0
KSB1 191635Z 19001KT 19/M03 A3009 RMK A01 T01881029  RH  023%=      5-min Rain = 0
KSB1 191636Z 19002KT 19/M03 A3009 RMK A01 T01901029  RH  022%=      5-min Rain = 0
KSB1 191637Z 20003KT 19/M03 A3009 RMK A01 T01921030  RH  022%=      5-min Rain = 0
KSB1 191638Z 23005KT 19/M03 A3008 RMK A01 T01921033  RH  022%=      5-min Rain = 0
KSB1 191639Z 23005KT 19/M04 A3008 RMK A01 T01921036  RH  021%=      5-min Rain = 0
KSB1 191640Z 22005KT 19/M04 A3008 RMK A01 T01921035  RH  021%=      5-min Rain = 0
KSB1 191641Z 23005KT 19/M03 A3008 RMK A01 T01911033  RH  022%=      5-min Rain = 0
KSB1 191642Z 22007KT 19/M03 A3008 RMK A01 T01931033  RH  021%=      5-min Rain = 0
KSB1 191643Z 19006KT 19/M03 A3008 RMK A01 T01921033  RH  021%=      5-min Rain = 0
KSB1 191644Z 19005KT 19/M03 A3008 RMK A01 T01931033  RH  021%=      5-min Rain = 0
KSB1 191645Z 21006KT 20/M03 A3008 RMK A01 T01951034  RH  021%=      5-min Rain = 0
KSB1 191646Z 20006KT 19/M03 A3008 RMK A01 T01941034  RH  021%=      5-min Rain = 0
KSB1 191647Z 21005KT 19/M04 A3008 RMK A01 T01931035  RH  021%=      5-min Rain = 0
KSB1 191648Z 19004KT 19/M03 A3008 RMK A01 T01921033  RH  022%=      5-min Rain = 0
KSB1 191649Z 19004KT 19/M04 A3008 RMK A01 T01921035  RH  021%=      5-min Rain = 0
KSB1 191650Z 20005KT 19/M04 A3008 RMK A01 T01931035  RH  021%=      5-min Rain = 0
KSB1 191651Z 19005KT 19/M03 A3008 RMK A01 T01941034  RH  021%=      5-min Rain = 0
KSB1 191652Z 21004KT 19/M03 A3008 RMK A01 T01941034  RH  021%=      5-min Rain = 0
KSB1 191653Z 20003KT 19/M03 A3008 RMK A01 T01931034  RH  021%=      5-min Rain = 0
KSB1 191654Z 19005KT 19/M03 A3008 RMK A01 T01931033  RH  021%=      5-min Rain = 0
KSB1 191655Z 21004KT 19/M03 A3008 RMK A01 T01931032  RH  022%=      5-min Rain = 0
KSB1 191656Z 21004KT 19/M03 A3008 RMK A01 T01941032  RH  021%=      5-min Rain = 0
KSB1 191657Z 23005KT 19/M03 A3008 RMK A01 T01941030  RH  022%=      5-min Rain = 0
KSB1 191658Z 25006KT 19/M03 A3008 RMK A01 T01941031  RH  022%=      5-min Rain = 0
KSB1 191659Z 24005KT 19/M03 A3008 RMK A01 T01931031  RH  022%=      5-min Rain = 0
KSB1 191700Z 23005KT 19/M03 A3008 RMK A01 T01921031  RH  022%=      5-min Rain = 0
KSB1 191701Z 22005KT 19/M03 A3008 RMK A01 T01921030  RH  022%=      5-min Rain = 0
KSB1 191702Z 21004KT 19/M03 A3008 RMK A01 T01931028  RH  022%=      5-min Rain = 0
KSB1 191703Z 23005KT 20/M03 A3008 RMK A01 T01951028  RH  022%=      5-min Rain = 0
KSB1 191704Z 22004KT 20/M03 A3008 RMK A01 T01961028  RH  022%=      5-min Rain = 0
KSB1 191705Z 24006KT 20/M03 A3008 RMK A01 T01981026  RH  022%=      5-min Rain = 0
KSB1 191706Z 25007KT 20/M03 A3008 RMK A01 T01981028  RH  022%=      5-min Rain = 0
KSB1 191707Z 26007KT 20/M03 A3008 RMK A01 T01961029  RH  022%=      5-min Rain = 0
KSB1 191708Z 25007KT 20/M03 A3008 RMK A01 T01961027  RH  022%=      5-min Rain = 0
KSB1 191709Z 23007KT 20/M03 A3008 RMK A01 T01971026  RH  022%=      5-min Rain = 0
KSB1 191710Z 24008KT 20/M03 A3008 RMK A01 T01981026  RH  022%=      5-min Rain = 0
KSB1 191711Z 23007KT 20/M03 A3008 RMK A01 T01981026  RH  022%=      5-min Rain = 0
KSB1 191712Z 25007KT 20/M02 A3008 RMK A01 T01991024  RH  022%=      5-min Rain = 0
KSB1 191713Z 26006KT 20/M02 A3008 RMK A01 T02001024  RH  022%=      5-min Rain = 0
KSB1 191714Z 24006KT 20/M02 A3008 RMK A01 T02011024  RH  022%=      5-min Rain = 0
KSB1 191715Z 23007KT 20/M02 A3008 RMK A01 T02011024  RH  022%=      5-min Rain = 0
KSB1 191716Z 26006KT 20/M02 A3008 RMK A01 T02011023  RH  022%=      5-min Rain = 0
KSB1 191717Z 26007KT 20/M02 A3008 RMK A01 T02021023  RH  022%=      5-min Rain = 0
KSB1 191718Z 25009KT 20/M02 A3008 RMK A01 T02031023  RH  022%=      5-min Rain = 0
KSB1 191719Z 25007KT 20/M02 A3008 RMK A01 T02031024  RH  022%=      5-min Rain = 0
KSB1 191720Z 26008KT 20/M02 A3007 RMK A01 T02031023  RH  022%=      5-min Rain = 0
KSB1 191721Z 25009KT 20/M02 A3007 RMK A01 T02041023  RH  022%=      5-min Rain = 0
KSB1 191722Z 25008KT 20/M02 A3007 RMK A01 T02041023  RH  022%=      5-min Rain = 0
KSB1 191723Z 25007KT 20/M02 A3007 RMK A01 T02041023  RH  022%=      5-min Rain = 0
KSB1 191724Z 23008KT 20/M02 A3007 RMK A01 T02041020  RH  022%=      5-min Rain = 0
KSB1 191725Z 22008KT 21/M02 A3007 RMK A01 T02061022  RH  022%=      5-min Rain = 0
KSB1 191726Z 22009KT 21/M02 A3007 RMK A01 T02051020  RH  022%=      5-min Rain = 0
KSB1 191727Z 24008KT 21/M02 A3007 RMK A01 T02061018  RH  022%=      5-min Rain = 0
KSB1 191728Z 24008KT 21/M02 A3007 RMK A01 T02091017  RH  022%=      5-min Rain = 0
KSB1 191729Z 23006KT 21/M02 A3007 RMK A01 T02101017  RH  022%=      5-min Rain = 0
KSB1 191730Z 23005KT 21/M02 A3007 RMK A01 T02111019  RH  021%=      5-min Rain = 0
KSB1 191731Z 22006KT 21/M02 A3007 RMK A01 T02101018  RH  022%=      5-min Rain = 0
KSB1 191732Z 25006KT 21/M02 A3007 RMK A01 T02101018  RH  022%=      5-min Rain = 0
KSB1 191733Z 26008KT 21/M02 A3007 RMK A01 T02091019  RH  022%=      5-min Rain = 0
KSB1 191734Z 25009KT 21/M02 A3007 RMK A01 T02091018  RH  022%=      5-min Rain = 0
KSB1 191735Z 25007KT 21/M02 A3007 RMK A01 T02091019  RH  022%=      5-min Rain = 0
KSB1 191736Z 23005KT 21/M02 A3006 RMK A01 T02091018  RH  022%=      5-min Rain = 0
KSB1 191737Z 25006KT 21/M02 A3006 RMK A01 T02101016  RH  022%=      5-min Rain = 0
KSB1 191738Z 25008KT 21/M02 A3006 RMK A01 T02121016  RH  022%=      5-min Rain = 0
KSB1 191739Z 25008KT 21/M02 A3006 RMK A01 T02131017  RH  021%=      5-min Rain = 0
KSB1 191740Z 25008KT 21/M02 A3006 RMK A01 T02131016  RH  021%=      5-min Rain = 0
KSB1 191741Z 26005KT 21/M02 A3006 RMK A01 T02141016  RH  021%=      5-min Rain = 0
KSB1 191742Z 27004KT 21/M02 A3006 RMK A01 T02141016  RH  021%=      5-min Rain = 0
KSB1 191743Z 25005KT 22/M02 A3006 RMK A01 T02151015  RH  021%=      5-min Rain = 0
KSB1 191744Z 25006KT 22/M02 A3006 RMK A01 T02161016  RH  021%=      5-min Rain = 0
KSB1 191745Z 27004KT 22/M02 A3006 RMK A01 T02151015  RH  021%=      5-min Rain = 0
KSB1 191746Z 26004KT 22/M02 A3006 RMK A01 T02151015  RH  021%=      5-min Rain = 0
KSB1 191747Z 23007KT 22/M01 A3006 RMK A01 T02161013  RH  022%=      5-min Rain = 0
KSB1 191748Z 24007KT 22/M01 A3006 RMK A01 T02191011  RH  021%=      5-min Rain = 0
KSB1 191749Z 22009KT 22/M01 A3006 RMK A01 T02211011  RH  021%=      5-min Rain = 0
KSB1 191750Z 23009KT 22/M01 A3005 RMK A01 T02231011  RH  021%=      5-min Rain = 0
KSB1 191751Z 22011KT 22/M01 A3005 RMK A01 T02231013  RH  021%=      5-min Rain = 0
KSB1 191752Z 23010KT 22/M01 A3005 RMK A01 T02211013  RH  021%=      5-min Rain = 0
KSB1 191753Z 23009KT 22/M01 A3005 RMK A01 T02211012  RH  021%=      5-min Rain = 0
KSB1 191754Z 21011KT 22/M01 A3005 RMK A01 T02211012  RH  021%=      5-min Rain = 0
KSB1 191755Z 21011KT 22/M01 A3005 RMK A01 T02211011  RH  021%=      5-min Rain = 0
KSB1 191756Z 21011KT 22/M01 A3005 RMK A01 T02221010  RH  021%=      5-min Rain = 0
KSB1 191757Z 22009KT 22/M01 A3005 RMK A01 T02211011  RH  021%=      5-min Rain = 0
KSB1 191758Z 23009KT 22/M01 A3005 RMK A01 T02211011  RH  021%=      5-min Rain = 0
KSB1 191759Z 22011KT 22/M01 A3005 RMK A01 T02201010  RH  021%=      5-min Rain = 0
KSB1 191800Z 22009KT 22/M01 A3005 RMK A01 T02211010  RH  021%=      5-min Rain = 0
KSB1 191801Z 22011KT 22/M01 A3005 RMK A01 T02221010  RH  021%=      5-min Rain = 0
KSB1 191802Z 22008KT 22/M01 A3005 RMK A01 T02211011  RH  021%=      5-min Rain = 0
KSB1 191803Z 21010KT 22/M01 A3005 RMK A01 T02201010  RH  022%=      5-min Rain = 0
KSB1 191804Z 20009KT 22/M01 A3005 RMK A01 T02211010  RH  021%=      5-min Rain = 0
KSB1 191805Z 19008KT 22/M01 A3005 RMK A01 T02191011  RH  021%=      5-min Rain = 0
KSB1 191806Z 20013KT 22/M01 A3005 RMK A01 T02201008  RH  022%=      5-min Rain = 0
KSB1 191807Z 20011KT 22/M01 A3005 RMK A01 T02201010  RH  021%=      5-min Rain = 0
KSB1 191808Z 20011KT 22/M01 A3004 RMK A01 T02191009  RH  022%=      5-min Rain = 0
KSB1 191809Z 21012G17KT 22/M01 A3004 RMK A01 T02221007  RH  022%=      5-min Rain = 0
KSB1 191810Z 23009KT 23/M01 A3004 RMK A01 T02261006  RH  021%=      5-min Rain = 0
KSB1 191811Z 22011KT 23/M01 A3004 RMK A01 T02291005  RH  021%=      5-min Rain = 0
KSB1 191812Z 23011KT 23/M01 A3004 RMK A01 T02281007  RH  021%=      5-min Rain = 0
KSB1 191813Z 22011KT 23/M01 A3004 RMK A01 T02291005  RH  021%=      5-min Rain = 0
KSB1 191814Z 22013KT 23/M01 A3004 RMK A01 T02321005  RH  021%=      5-min Rain = 0
KSB1 191815Z 23012KT 23/M01 A3004 RMK A01 T02301008  RH  021%=      5-min Rain = 0
KSB1 191816Z 21013KT 23/M01 A3004 RMK A01 T02281007  RH  021%=      5-min Rain = 0
KSB1 191817Z 22014KT 23/M01 A3004 RMK A01 T02291006  RH  021%=      5-min Rain = 0
KSB1 191818Z 22013KT 23/M01 A3004 RMK A01 T02271008  RH  021%=      5-min Rain = 0
KSB1 191819Z 22010KT 23/M01 A3004 RMK A01 T02261007  RH  021%=      5-min Rain = 0
KSB1 191820Z 22010KT 23/M00 A3004 RMK A01 T02281004  RH  021%=      5-min Rain = 0
KSB1 191821Z 21010KT 23/M00 A3004 RMK A01 T02321002  RH  021%=      5-min Rain = 0
KSB1 191822Z 23013KT 24/M00 A3004 RMK A01 T02361002  RH  021%=      5-min Rain = 0
KSB1 191823Z 23013KT 24/M00 A3004 RMK A01 T02361004  RH  020%=      5-min Rain = 0
KSB1 191824Z 22011KT 23/M01 A3004 RMK A01 T02321006  RH  021%=      5-min Rain = 0
KSB1 191825Z 21011KT 23/M00 A3004 RMK A01 T02311004  RH  021%=      5-min Rain = 0
KSB1 191826Z 22011KT 23/M01 A3004 RMK A01 T02321005  RH  021%=      5-min Rain = 0
KSB1 191827Z 22012KT 23/M01 A3004 RMK A01 T02321005  RH  021%=      5-min Rain = 0
KSB1 191828Z 22010KT 23/M00 A3004 RMK A01 T02321004  RH  021%=      5-min Rain = 0
KSB1 191829Z 22011KT 23/M00 A3004 RMK A01 T02331004  RH  021%=      5-min Rain = 0
KSB1 191830Z 22012KT 24/M00 A3003 RMK A01 T02351004  RH  020%=      5-min Rain = 0
KSB1 191831Z 21009KT 23/M01 A3004 RMK A01 T02331007  RH  020%=      5-min Rain = 0
KSB1 191832Z 22011KT 23/M01 A3003 RMK A01 T02301006  RH  021%=      5-min Rain = 0
KSB1 191833Z 22014KT 23/M00 A3003 RMK A01 T02321004  RH  021%=      5-min Rain = 0
KSB1 191834Z 22013KT 23/M01 A3003 RMK A01 T02311005  RH  021%=      5-min Rain = 0
KSB1 191835Z 21013KT 23/M01 A3003 RMK A01 T02321005  RH  021%=      5-min Rain = 0
KSB1 191836Z 20013KT 23/M01 A3003 RMK A01 T02311006  RH  021%=      5-min Rain = 0
KSB1 191837Z 21012KT 23/M01 A3003 RMK A01 T02311006  RH  021%=      5-min Rain = 0
KSB1 191838Z 21012KT 23/M01 A3003 RMK A01 T02311005  RH  021%=      5-min Rain = 0
KSB1 191839Z 22013KT 23/M01 A3003 RMK A01 T02311006  RH  021%=      5-min Rain = 0
KSB1 191840Z 22011KT 23/M00 A3003 RMK A01 T02311004  RH  021%=      5-min Rain = 0
KSB1 191841Z 22010KT 23/M00 A3003 RMK A01 T02341004  RH  021%=      5-min Rain = 0
KSB1 191842Z 23010KT 23/M00 A3003 RMK A01 T02331003  RH  021%=      5-min Rain = 0
KSB1 191843Z 23010KT 24/M00 A3003 RMK A01 T02361002  RH  021%=      5-min Rain = 0
KSB1 191844Z 23012KT 24/M00 A3002 RMK A01 T02351004  RH  020%=      5-min Rain = 0
KSB1 191845Z 24010KT 23/M00 A3002 RMK A01 T02331004  RH  021%=      5-min Rain = 0
KSB1 191846Z 23008KT 23/M01 A3002 RMK A01 T02321005  RH  021%=      5-min Rain = 0
KSB1 191847Z 22009G14KT 23/M00 A3002 RMK A01 T02331001  RH  021%=      5-min Rain = 0
KSB1 191848Z 23011KT 24/M00 A3002 RMK A01 T02361001  RH  021%=      5-min Rain = 0
KSB1 191849Z 24011KT 23/M00 A3002 RMK A01 T02341004  RH  021%=      5-min Rain = 0
KSB1 191850Z 23010KT 23/M00 A3002 RMK A01 T02341004  RH  021%=      5-min Rain = 0
KSB1 191851Z 23009KT 23/M01 A3002 RMK A01 T02321006  RH  020%=      5-min Rain = 0
KSB1 191852Z 22011G16KT 23/M00 A3002 RMK A01 T02321003  RH  021%=      5-min Rain = 0
KSB1 191853Z 22013KT 23/M00 A3002 RMK A01 T02331003  RH  021%=      5-min Rain = 0
KSB1 191854Z 21013KT 23/M00 A3002 RMK A01 T02321004  RH  021%=      5-min Rain = 0
KSB1 191855Z 21012KT 23/M00 A3001 RMK A01 T02311004  RH  021%=      5-min Rain = 0
KSB1 191856Z 23012KT 23/M00 A3001 RMK A01 T02321002  RH  021%=      5-min Rain = 0
KSB1 191857Z 24010KT 24/M00 A3001 RMK A01 T02351002  RH  021%=      5-min Rain = 0
KSB1 191858Z 23011KT 24/00 A3002 RMK A01 T02400001  RH  021%=      5-min Rain = 0
KSB1 191859Z 22010KT 24/M00 A3001 RMK A01 T02391002  RH  020%=      5-min Rain = 0
KSB1 191900Z 21009KT 24/M00 A3001 RMK A01 T02371003  RH  020%=      5-min Rain = 0
KSB1 191901Z 21007KT 23/M00 A3001 RMK A01 T02341004  RH  021%=      5-min Rain = 0
KSB1 191902Z 21008KT 23/M00 A3001 RMK A01 T02321003  RH  021%=      5-min Rain = 0
KSB1 191903Z 22008KT 23/M00 A3001 RMK A01 T02321003  RH  021%=      5-min Rain = 0
KSB1 191904Z 23010KT 23/M00 A3001 RMK A01 T02311001  RH  021%=      5-min Rain = 0
KSB1 191905Z 24006KT 23/M00 A3001 RMK A01 T02301004  RH  021%=      5-min Rain = 0
KSB1 191906Z 23010KT 23/M00 A3001 RMK A01 T02301001  RH  022%=      5-min Rain = 0
KSB1 191907Z 24010KT 23/M00 A3001 RMK A01 T02331002  RH  021%=      5-min Rain = 0
KSB1 191908Z 24010KT 23/M00 A3001 RMK A01 T02331003  RH  021%=      5-min Rain = 0
KSB1 191909Z 24011KT 23/M00 A30 RMK A01 T02321002  RH  021%=      5-min Rain = 0
KSB1 191910Z 23008KT 24/00 A3001 RMK A01 T02360004  RH  021%=      5-min Rain = 0
KSB1 191911Z 25007KT 24/M00 A3001 RMK A01 T02411001  RH  020%=      5-min Rain = 0
KSB1 191912Z 24009KT 24/M00 A30 RMK A01 T02391001  RH  020%=      5-min Rain = 0
KSB1 191913Z 26008KT 24/M00 A30 RMK A01 T02391002  RH  020%=      5-min Rain = 0
KSB1 191914Z 25007KT 24/M00 A30 RMK A01 T02391004  RH  020%=      5-min Rain = 0
KSB1 191915Z 27006KT 24/M00 A30 RMK A01 T02401001  RH  020%=      5-min Rain = 0
KSB1 191916Z 25005KT 24/M00 A30 RMK A01 T02421001  RH  020%=      5-min Rain = 0
KSB1 191917Z 26007G12KT 24/00 A30 RMK A01 T024400-0  RH  020%=      5-min Rain = 0
KSB1 191918Z 26010KT 24/00 A30 RMK A01 T02430000  RH  020%=      5-min Rain = 0
KSB1 191919Z 26010KT 24/M00 A30 RMK A01 T02401001  RH  020%=      5-min Rain = 0
KSB1 191920Z 28007KT 24/00 A30 RMK A01 T02390000  RH  021%=      5-min Rain = 0
KSB1 191921Z 25008KT 24/00 A30 RMK A01 T02380000  RH  021%=      5-min Rain = 0
KSB1 191922Z 24009KT 24/00 A30 RMK A01 T02370001  RH  021%=      5-min Rain = 0
KSB1 191923Z 27007KT 24/M00 A30 RMK A01 T02371001  RH  021%=      5-min Rain = 0
KSB1 191924Z 27008KT 24/M00 A30 RMK A01 T02371001  RH  021%=      5-min Rain = 0
KSB1 191925Z 26009KT 24/00 A30 RMK A01 T023800-0  RH  021%=      5-min Rain = 0
KSB1 191926Z 25007KT 24/00 A30 RMK A01 T023800-0  RH  021%=      5-min Rain = 0
KSB1 191927Z 25006KT 24/00 A30 RMK A01 T023800-0  RH  021%=      5-min Rain = 0
KSB1 191928Z 23009KT 24/00 A2999 RMK A01 T02370001  RH  021%=      5-min Rain = 0
KSB1 191929Z 22011KT 24/00 A2999 RMK A01 T02370003  RH  021%=      5-min Rain = 0
KSB1 191930Z 23009KT 24/00 A2999 RMK A01 T02360003  RH  022%=      5-min Rain = 0
KSB1 191931Z 23012KT 24/00 A2999 RMK A01 T02380004  RH  021%=      5-min Rain = 0
KSB1 191932Z 22007KT 24/00 A2999 RMK A01 T02390002  RH  021%=      5-min Rain = 0
KSB1 191933Z 25009KT 24/00 A2999 RMK A01 T02390003  RH  021%=      5-min Rain = 0
KSB1 191934Z 26008KT 24/00 A2999 RMK A01 T02390003  RH  021%=      5-min Rain = 0
KSB1 191935Z 26007KT 24/00 A2999 RMK A01 T02400003  RH  021%=      5-min Rain = 0
KSB1 191936Z 24007KT 24/00 A2999 RMK A01 T02400003  RH  021%=      5-min Rain = 0
KSB1 191937Z 25006KT 24/00 A2999 RMK A01 T02400004  RH  021%=      5-min Rain = 0
KSB1 191938Z 29005KT 24/00 A2999 RMK A01 T02370002  RH  021%=      5-min Rain = 0
KSB1 191939Z 28006KT 24/00 A2998 RMK A01 T02360003  RH  021%=      5-min Rain = 0
KSB1 191940Z 25007KT 24/01 A2998 RMK A01 T02370005  RH  022%=      5-min Rain = 0
KSB1 191941Z 24007KT 24/00 A2998 RMK A01 T02370004  RH  022%=      5-min Rain = 0
KSB1 191942Z 24007KT 24/00 A2998 RMK A01 T02360004  RH  022%=      5-min Rain = 0
KSB1 191943Z 24007KT 24/01 A2998 RMK A01 T02360005  RH  022%=      5-min Rain = 0
KSB1 191944Z 24006KT 24/00 A2998 RMK A01 T02350004  RH  022%=      5-min Rain = 0
KSB1 191945Z 21008KT 24/01 A2998 RMK A01 T02350006  RH  022%=      5-min Rain = 0
KSB1 191946Z 22008KT 24/01 A2998 RMK A01 T02370007  RH  022%=      5-min Rain = 0
KSB1 191947Z 22009KT 24/01 A2998 RMK A01 T02410009  RH  022%=      5-min Rain = 0
KSB1 191948Z 21009KT 24/01 A2998 RMK A01 T02440008  RH  021%=      5-min Rain = 0
KSB1 191949Z 22011KT 24/01 A2997 RMK A01 T02430006  RH  021%=      5-min Rain = 0
KSB1 191950Z 22010KT 24/01 A2997 RMK A01 T02410007  RH  021%=      5-min Rain = 0
KSB1 191951Z 24009KT 24/01 A2997 RMK A01 T02400007  RH  022%=      5-min Rain = 0
KSB1 191952Z 25008KT 24/01 A2997 RMK A01 T02400006  RH  021%=      5-min Rain = 0
KSB1 191953Z 26006KT 24/01 A2997 RMK A01 T02400006  RH  021%=      5-min Rain = 0
KSB1 191954Z 23004KT 24/01 A2997 RMK A01 T02390005  RH  021%=      5-min Rain = 0
KSB1 191955Z 23007G12KT 24/01 A2997 RMK A01 T02380005  RH  022%=      5-min Rain = 0
KSB1 191956Z 23009KT 24/01 A2997 RMK A01 T02420010  RH  022%=      5-min Rain = 0
KSB1 191957Z 24009KT 24/01 A2997 RMK A01 T02430008  RH  021%=      5-min Rain = 0
KSB1 191958Z 26009KT 24/01 A2997 RMK A01 T02440010  RH  021%=      5-min Rain = 0
KSB1 191959Z 24010KT 24/01 A2997 RMK A01 T02440009  RH  021%=      5-min Rain = 0
KSB1 192000Z 22009KT 24/01 A2997 RMK A01 T02430010  RH  022%=      5-min Rain = 0
KSB1 192001Z 23010KT 24/01 A2997 RMK A01 T02420009  RH  022%=      5-min Rain = 0
KSB1 192002Z 23009KT 24/01 A2997 RMK A01 T02360007  RH  022%=      5-min Rain = 0
KSB1 192003Z 22005KT 24/01 A2997 RMK A01 T02350008  RH  022%=      5-min Rain = 0
KSB1 192004Z 22006KT 23/01 A2997 RMK A01 T02340008  RH  022%=      5-min Rain = 0
KSB1 192005Z 23009KT 23/01 A2997 RMK A01 T02340008  RH  023%=      5-min Rain = 0
KSB1 192006Z 23008KT 23/01 A2997 RMK A01 T02340008  RH  022%=      5-min Rain = 0
KSB1 192007Z 22007KT 23/01 A2997 RMK A01 T02330007  RH  023%=      5-min Rain = 0
KSB1 192008Z 22008KT 23/01 A2997 RMK A01 T02340008  RH  023%=      5-min Rain = 0
KSB1 192009Z 22008KT 24/01 A2996 RMK A01 T02360010  RH  022%=      5-min Rain = 0
KSB1 192010Z 22007KT 24/01 A2996 RMK A01 T02390011  RH  022%=      5-min Rain = 0
KSB1 192011Z 26004KT 24/01 A2996 RMK A01 T02390009  RH  022%=      5-min Rain = 0
KSB1 192012Z 28006KT 24/01 A2996 RMK A01 T02380006  RH  022%=      5-min Rain = 0
KSB1 192013Z 26008KT 24/01 A2996 RMK A01 T02390005  RH  021%=      5-min Rain = 0
KSB1 192014Z 23009KT 24/01 A2996 RMK A01 T02400008  RH  022%=      5-min Rain = 0
KSB1 192015Z 24009KT 24/01 A2996 RMK A01 T02390009  RH  022%=      5-min Rain = 0
KSB1 192016Z 25007KT 24/01 A2996 RMK A01 T02380008  RH  022%=      5-min Rain = 0
KSB1 192017Z 24007KT 24/01 A2996 RMK A01 T02390010  RH  022%=      5-min Rain = 0
KSB1 192018Z 22006KT 24/01 A2996 RMK A01 T02400010  RH  022%=      5-min Rain = 0
KSB1 192019Z 21006KT 24/01 A2996 RMK A01 T02400008  RH  022%=      5-min Rain = 0
KSB1 192020Z 21006KT 24/01 A2996 RMK A01 T02400010  RH  022%=      5-min Rain = 0
KSB1 192021Z 22006KT 24/01 A2996 RMK A01 T02390009  RH  022%=      5-min Rain = 0
KSB1 192022Z 22005KT 24/01 A2996 RMK A01 T02390010  RH  022%=      5-min Rain = 0
KSB1 192023Z 21007KT 24/01 A2995 RMK A01 T02390011  RH  022%=      5-min Rain = 0
KSB1 192024Z 21007KT 24/01 A2995 RMK A01 T02400013  RH  022%=      5-min Rain = 0
KSB1 192025Z 22006KT 24/01 A2995 RMK A01 T02430014  RH  022%=      5-min Rain = 0
KSB1 192026Z 26008KT 24/01 A2995 RMK A01 T02430011  RH  022%=      5-min Rain = 0
KSB1 192027Z 22009KT 24/01 A2995 RMK A01 T02430011  RH  022%=      5-min Rain = 0
KSB1 192028Z 23011KT 24/01 A2995 RMK A01 T02410009  RH  022%=      5-min Rain = 0
KSB1 192029Z 23009KT 24/01 A2995 RMK A01 T02380006  RH  022%=      5-min Rain = 0
KSB1 192030Z 24009KT 24/00 A2995 RMK A01 T02360004  RH  022%=      5-min Rain = 0
KSB1 192031Z 24008KT 23/01 A2995 RMK A01 T02340005  RH  022%=      5-min Rain = 0
KSB1 192032Z 26008KT 24/01 A2995 RMK A01 T02350007  RH  022%=      5-min Rain = 0
KSB1 192033Z 28008KT 24/01 A2995 RMK A01 T02350008  RH  022%=      5-min Rain = 0
KSB1 192034Z 27006KT 24/01 A2995 RMK A01 T02350008  RH  022%=      5-min Rain = 0
KSB1 192035Z 29007KT 24/01 A2995 RMK A01 T02350008  RH  022%=      5-min Rain = 0
KSB1 192036Z 29007KT 24/01 A2995 RMK A01 T02350009  RH  022%=      5-min Rain = 0
KSB1 192037Z 29009KT 24/01 A2995 RMK A01 T02350008  RH  022%=      5-min Rain = 0
KSB1 192038Z 29007KT 23/01 A2995 RMK A01 T02330007  RH  023%=      5-min Rain = 0
KSB1 192039Z 28007KT 23/01 A2995 RMK A01 T02310008  RH  023%=      5-min Rain = 0
KSB1 192040Z 26009KT 23/01 A2995 RMK A01 T02320007  RH  023%=      5-min Rain = 0
KSB1 192041Z 26007KT 23/01 A2995 RMK A01 T02320007  RH  023%=      5-min Rain = 0
KSB1 192042Z 27007KT 23/01 A2995 RMK A01 T02320008  RH  023%=      5-min Rain = 0
KSB1 192043Z 28006KT 23/01 A2995 RMK A01 T02310007  RH  023%=      5-min Rain = 0
KSB1 192044Z 28006KT 23/01 A2995 RMK A01 T02310007  RH  023%=      5-min Rain = 0
KSB1 192045Z 28005KT 23/01 A2995 RMK A01 T02300008  RH  023%=      5-min Rain = 0
KSB1 192046Z 29005KT 23/01 A2995 RMK A01 T02300007  RH  023%=      5-min Rain = 0
KSB1 192047Z 30006KT 23/01 A2995 RMK A01 T02300008  RH  023%=      5-min Rain = 0
KSB1 192048Z 29006KT 23/01 A2995 RMK A01 T02310008  RH  023%=      5-min Rain = 0
KSB1 192049Z 27007KT 23/01 A2995 RMK A01 T02310008  RH  023%=      5-min Rain = 0
KSB1 192050Z 28006KT 23/01 A2995 RMK A01 T02310008  RH  023%=      5-min Rain = 0
KSB1 192051Z 29005KT 23/01 A2995 RMK A01 T02310007  RH  023%=      5-min Rain = 0
KSB1 192052Z 26006KT 23/01 A2995 RMK A01 T02310008  RH  023%=      5-min Rain = 0
KSB1 192053Z 27007KT 23/01 A2995 RMK A01 T02320007  RH  023%=      5-min Rain = 0
KSB1 192054Z 25006KT 23/01 A2995 RMK A01 T02320009  RH  023%=      5-min Rain = 0
KSB1 192055Z 25005KT 23/01 A2995 RMK A01 T02320012  RH  024%=      5-min Rain = 0
KSB1 192056Z 26005KT 23/01 A2995 RMK A01 T02310012  RH  023%=      5-min Rain = 0
KSB1 192057Z 25006KT 23/01 A2995 RMK A01 T02310008  RH  023%=      5-min Rain = 0
KSB1 192058Z 24005KT 23/01 A2995 RMK A01 T02310008  RH  023%=      5-min Rain = 0
KSB1 192059Z 24005KT 23/01 A2995 RMK A01 T02310011  RH  023%=      5-min Rain = 0
KSB1 192100Z 21006KT 23/01 A2995 RMK A01 T02310012  RH  024%=      5-min Rain = 0
KSB1 192101Z 20009KT 23/01 A2995 RMK A01 T02300012  RH  024%=      5-min Rain = 0
KSB1 192102Z 20008KT 23/01 A2994 RMK A01 T02300012  RH  024%=      5-min Rain = 0
KSB1 192103Z 20009KT 23/01 A2994 RMK A01 T02290012  RH  024%=      5-min Rain = 0
KSB1 192104Z 19006KT 23/01 A2994 RMK A01 T02270011  RH  024%=      5-min Rain = 0
KSB1 192105Z 20008KT 23/01 A2994 RMK A01 T02270012  RH  024%=      5-min Rain = 0
KSB1 192106Z 19007KT 23/01 A2994 RMK A01 T02280011  RH  024%=      5-min Rain = 0
KSB1 192107Z 20007KT 23/01 A2994 RMK A01 T02280012  RH  024%=      5-min Rain = 0
KSB1 192108Z 19006KT 23/01 A2994 RMK A01 T02290012  RH  024%=      5-min Rain = 0
KSB1 192109Z 19008KT 23/01 A2994 RMK A01 T02280011  RH  024%=      5-min Rain = 0
KSB1 192110Z 19008KT 23/01 A2994 RMK A01 T02280012  RH  024%=      5-min Rain = 0
KSB1 192111Z 20008KT 23/01 A2994 RMK A01 T02280011  RH  024%=      5-min Rain = 0
KSB1 192112Z 21008KT 23/01 A2994 RMK A01 T02270011  RH  024%=      5-min Rain = 0
KSB1 192113Z 19007KT 23/01 A2994 RMK A01 T02280012  RH  024%=      5-min Rain = 0
KSB1 192114Z 21007KT 23/01 A2994 RMK A01 T02290013  RH  024%=      5-min Rain = 0
KSB1 192115Z 21010KT 23/01 A2994 RMK A01 T02300013  RH  024%=      5-min Rain = 0
KSB1 192116Z 21009KT 23/01 A2994 RMK A01 T02300013  RH  024%=      5-min Rain = 0
KSB1 192117Z 21008KT 23/01 A2994 RMK A01 T02290012  RH  024%=      5-min Rain = 0
KSB1 192118Z 22011KT 23/01 A2994 RMK A01 T02290012  RH  024%=      5-min Rain = 0
KSB1 192119Z 21010KT 23/01 A2994 RMK A01 T02290012  RH  024%=      5-min Rain = 0
KSB1 192120Z 21010KT 23/01 A2995 RMK A01 T02290012  RH  024%=      5-min Rain = 0
KSB1 192121Z 21010KT 23/01 A2995 RMK A01 T02290011  RH  024%=      5-min Rain = 0
KSB1 192122Z 21011KT 23/01 A2995 RMK A01 T02280010  RH  024%=      5-min Rain = 0
KSB1 192123Z 22009KT 23/01 A2995 RMK A01 T02280011  RH  024%=      5-min Rain = 0
KSB1 192124Z 20010KT 23/01 A2995 RMK A01 T02290011  RH  024%=      5-min Rain = 0
KSB1 192125Z 20009KT 23/01 A2995 RMK A01 T02290010  RH  024%=      5-min Rain = 0
KSB1 192126Z 23009KT 23/01 A2995 RMK A01 T02290011  RH  024%=      5-min Rain = 0
KSB1 192127Z 22009KT 23/01 A2995 RMK A01 T02290011  RH  024%=      5-min Rain = 0
KSB1 192128Z 22010KT 23/01 A2995 RMK A01 T02310012  RH  024%=      5-min Rain = 0
KSB1 192129Z 21009KT 23/01 A2995 RMK A01 T02330013  RH  023%=      5-min Rain = 0
KSB1 192130Z 21009KT 23/01 A2995 RMK A01 T02340013  RH  023%=      5-min Rain = 0
KSB1 192131Z 20007KT 24/01 A2995 RMK A01 T02350013  RH  023%=      5-min Rain = 0
KSB1 192132Z 20009KT 24/01 A2995 RMK A01 T02370014  RH  023%=      5-min Rain = 0
KSB1 192133Z 21009KT 24/02 A2995 RMK A01 T02370015  RH  023%=      5-min Rain = 0
KSB1 192134Z 21010KT 24/01 A2995 RMK A01 T02360014  RH  023%=      5-min Rain = 0
KSB1 192135Z 21009KT 24/01 A2995 RMK A01 T02360014  RH  023%=      5-min Rain = 0
KSB1 192136Z 20009KT 24/01 A2995 RMK A01 T02360014  RH  023%=      5-min Rain = 0
KSB1 192137Z 19007KT 24/01 A2995 RMK A01 T02360014  RH  023%=      5-min Rain = 0
KSB1 192138Z 21007KT 24/01 A2995 RMK A01 T02370014  RH  023%=      5-min Rain = 0
KSB1 192139Z 20007KT 24/01 A2994 RMK A01 T02370014  RH  023%=      5-min Rain = 0
KSB1 192140Z 19006KT 24/01 A2994 RMK A01 T02360014  RH  023%=      5-min Rain = 0
KSB1 192141Z 19007KT 24/01 A2994 RMK A01 T02360014  RH  023%=      5-min Rain = 0
KSB1 192142Z 21011KT 24/02 A2994 RMK A01 T02370015  RH  023%=      5-min Rain = 0
KSB1 192143Z 20009KT 24/01 A2994 RMK A01 T02380014  RH  023%=      5-min Rain = 0
KSB1 192144Z 21006KT 24/01 A2994 RMK A01 T02380014  RH  023%=      5-min Rain = 0
KSB1 192145Z 21006KT 24/01 A2994 RMK A01 T02360013  RH  023%=      5-min Rain = 0
KSB1 192146Z 21010KT 24/01 A2994 RMK A01 T02360014  RH  023%=      5-min Rain = 0
KSB1 192147Z 21009KT 24/01 A2994 RMK A01 T02370014  RH  023%=      5-min Rain = 0
KSB1 192148Z 21009KT 24/02 A2994 RMK A01 T02380015  RH  023%=      5-min Rain = 0
KSB1 192149Z 21008KT 24/02 A2994 RMK A01 T02380016  RH  023%=      5-min Rain = 0
KSB1 192150Z 22009KT 24/02 A2994 RMK A01 T02400016  RH  023%=      5-min Rain = 0
KSB1 192151Z 22007KT 24/02 A2994 RMK A01 T02400016  RH  023%=      5-min Rain = 0
KSB1 192152Z 24006KT 24/02 A2994 RMK A01 T02410015  RH  023%=      5-min Rain = 0
KSB1 192153Z 24007KT 24/02 A2994 RMK A01 T02400016  RH  023%=      5-min Rain = 0
KSB1 192154Z 25007KT 24/02 A2994 RMK A01 T02400016  RH  023%=      5-min Rain = 0
KSB1 192155Z 22006KT 24/02 A2994 RMK A01 T02390019  RH  024%=      5-min Rain = 0
KSB1 192156Z 22008KT 24/02 A2994 RMK A01 T02400019  RH  024%=      5-min Rain = 0
KSB1 192157Z 22008KT 24/02 A2994 RMK A01 T02390018  RH  024%=      5-min Rain = 0
KSB1 192158Z 22008KT 24/02 A2994 RMK A01 T02380019  RH  024%=      5-min Rain = 0
KSB1 192159Z 22011KT 24/02 A2994 RMK A01 T02380019  RH  024%=      5-min Rain = 0
KSB1 192200Z 22010KT 24/02 A2994 RMK A01 T02370019  RH  024%=      5-min Rain = 0
KSB1 192201Z 21007KT 23/02 A2994 RMK A01 T02340018  RH  024%=      5-min Rain = 0
KSB1 192202Z 22008KT 23/02 A2994 RMK A01 T02330019  RH  024%=      5-min Rain = 0
KSB1 192203Z 21009KT 23/02 A2993 RMK A01 T02320019  RH  025%=      5-min Rain = 0
KSB1 192204Z 25010KT 23/02 A2993 RMK A01 T02320019  RH  025%=      5-min Rain = 0
KSB1 192205Z 25010KT 23/02 A2994 RMK A01 T02320019  RH  025%=      5-min Rain = 0
KSB1 192206Z 25009KT 23/02 A2994 RMK A01 T02320019  RH  025%=      5-min Rain = 0
KSB1 192207Z 25010KT 23/02 A2994 RMK A01 T02310018  RH  025%=      5-min Rain = 0
KSB1 192208Z 25007KT 23/02 A2994 RMK A01 T02300018  RH  025%=      5-min Rain = 0
KSB1 192209Z 24007KT 23/02 A2994 RMK A01 T02310019  RH  025%=      5-min Rain = 0
KSB1 192210Z 23007KT 23/02 A2994 RMK A01 T02310019  RH  025%=      5-min Rain = 0
KSB1 192211Z 23007KT 23/02 A2994 RMK A01 T02320019  RH  025%=      5-min Rain = 0
KSB1 192212Z 23008KT 23/02 A2994 RMK A01 T02320020  RH  025%=      5-min Rain = 0
KSB1 192213Z 23008KT 23/02 A2994 RMK A01 T02330020  RH  025%=      5-min Rain = 0
KSB1 192214Z 23008KT 23/02 A2994 RMK A01 T02330020  RH  025%=      5-min Rain = 0
KSB1 192215Z 24008KT 23/02 A2994 RMK A01 T02320021  RH  025%=      5-min Rain = 0
KSB1 192216Z 24007KT 23/02 A2994 RMK A01 T02330021  RH  025%=      5-min Rain = 0
KSB1 192217Z 25009KT 23/02 A2994 RMK A01 T02340022  RH  025%=      5-min Rain = 0
KSB1 192218Z 24008KT 23/02 A2994 RMK A01 T02340021  RH  025%=      5-min Rain = 0
KSB1 192219Z 23010KT 23/02 A2994 RMK A01 T02330021  RH  025%=      5-min Rain = 0
KSB1 192220Z 24010KT 23/02 A2994 RMK A01 T02340021  RH  025%=      5-min Rain = 0
KSB1 192221Z 23009KT 23/02 A2994 RMK A01 T02340021  RH  025%=      5-min Rain = 0
KSB1 192222Z 24007KT 24/02 A2994 RMK A01 T02350021  RH  025%=      5-min Rain = 0
KSB1 192223Z 24007KT 24/02 A2994 RMK A01 T02360022  RH  025%=      5-min Rain = 0
KSB1 192224Z 25008KT 24/02 A2994 RMK A01 T02360021  RH  024%=      5-min Rain = 0
KSB1 192225Z 26007KT 24/02 A2994 RMK A01 T02360021  RH  025%=      5-min Rain = 0
KSB1 192226Z 24006KT 24/02 A2994 RMK A01 T02360021  RH  025%=      5-min Rain = 0
KSB1 192227Z 24006KT 24/02 A2994 RMK A01 T02370023  RH  025%=      5-min Rain = 0
KSB1 192228Z 24008KT 24/02 A2994 RMK A01 T02390023  RH  024%=      5-min Rain = 0
KSB1 192229Z 23007KT 24/02 A2993 RMK A01 T02370022  RH  024%=      5-min Rain = 0
KSB1 192230Z 22007KT 24/02 A2993 RMK A01 T02370022  RH  024%=      5-min Rain = 0
KSB1 192231Z 22007KT 24/02 A2993 RMK A01 T02370022  RH  024%=      5-min Rain = 0
KSB1 192232Z 23005KT 24/02 A2993 RMK A01 T02360022  RH  025%=      5-min Rain = 0
KSB1 192233Z 24005KT 24/02 A2993 RMK A01 T02370022  RH  025%=      5-min Rain = 0
KSB1 192234Z 24005KT 24/02 A2993 RMK A01 T02370022  RH  024%=      5-min Rain = 0
KSB1 192235Z 22004KT 24/02 A2993 RMK A01 T02360023  RH  025%=      5-min Rain = 0
KSB1 192236Z 23003KT 24/02 A2993 RMK A01 T02360022  RH  025%=      5-min Rain = 0
KSB1 192237Z 25004KT 24/02 A2993 RMK A01 T02360022  RH  025%=      5-min Rain = 0
KSB1 192238Z 24003KT 24/02 A2993 RMK A01 T02360022  RH  025%=      5-min Rain = 0
KSB1 192239Z 24003KT 24/02 A2993 RMK A01 T02360023  RH  025%=      5-min Rain = 0
KSB1 192240Z 21004KT 24/02 A2993 RMK A01 T02370024  RH  025%=      5-min Rain = 0
KSB1 192241Z 19005KT 24/02 A2993 RMK A01 T02370023  RH  025%=      5-min Rain = 0
KSB1 192242Z 22006KT 24/02 A2993 RMK A01 T02380023  RH  025%=      5-min Rain = 0
KSB1 192243Z 23006KT 24/02 A2993 RMK A01 T02370022  RH  024%=      5-min Rain = 0
KSB1 192244Z 22006KT 24/02 A2993 RMK A01 T02370023  RH  025%=      5-min Rain = 0
KSB1 192245Z 21007KT 24/02 A2993 RMK A01 T02380024  RH  025%=      5-min Rain = 0
KSB1 192246Z 21005KT 24/02 A2993 RMK A01 T02380023  RH  025%=      5-min Rain = 0
KSB1 192247Z 21004KT 24/02 A2993 RMK A01 T02360022  RH  025%=      5-min Rain = 0
KSB1 192248Z 20004KT 24/02 A2993 RMK A01 T02350022  RH  025%=      5-min Rain = 0
KSB1 192249Z 22006KT 24/02 A2993 RMK A01 T02350023  RH  025%=      5-min Rain = 0
KSB1 192250Z 23007KT 24/02 A2993 RMK A01 T02350023  RH  025%=      5-min Rain = 0
KSB1 192251Z 23009KT 24/02 A2993 RMK A01 T02350023  RH  025%=      5-min Rain = 0
KSB1 192252Z 23007KT 23/02 A2993 RMK A01 T02330022  RH  025%=      5-min Rain = 0
KSB1 192253Z 23007KT 23/02 A2993 RMK A01 T02330023  RH  025%=      5-min Rain = 0
KSB1 192254Z 24006KT 23/02 A2993 RMK A01 T02330024  RH  026%=      5-min Rain = 0
KSB1 192255Z 24006KT 23/03 A2993 RMK A01 T02320025  RH  026%=      5-min Rain = 0
KSB1 192256Z 23006KT 23/03 A2993 RMK A01 T02330025  RH  026%=      5-min Rain = 0
KSB1 192257Z 22008KT 23/03 A2993 RMK A01 T02320025  RH  026%=      5-min Rain = 0
KSB1 192258Z 22007KT 23/02 A2993 RMK A01 T02320024  RH  026%=      5-min Rain = 0
KSB1 192259Z 23007KT 23/02 A2993 RMK A01 T02310023  RH  026%=      5-min Rain = 0
KSB1 192300Z 23006KT 23/02 A2993 RMK A01 T02300023  RH  026%=      5-min Rain = 0
KSB1 192301Z 23006KT 23/02 A2993 RMK A01 T02300023  RH  026%=      5-min Rain = 0
KSB1 192302Z 22007KT 23/02 A2993 RMK A01 T02300023  RH  026%=      5-min Rain = 0
KSB1 192303Z 22007KT 23/02 A2993 RMK A01 T02290024  RH  026%=      5-min Rain = 0
KSB1 192304Z 22005KT 23/02 A2993 RMK A01 T02290024  RH  026%=      5-min Rain = 0
KSB1 192305Z 20005KT 23/02 A2993 RMK A01 T02280024  RH  026%=      5-min Rain = 0
KSB1 192306Z 21003KT 23/03 A2993 RMK A01 T02280025  RH  026%=      5-min Rain = 0
KSB1 192307Z 25003KT 23/03 A2993 RMK A01 T02280025  RH  026%=      5-min Rain = 0
KSB1 192308Z 25005KT 23/03 A2993 RMK A01 T02280025  RH  026%=      5-min Rain = 0
KSB1 192309Z 25006KT 23/02 A2993 RMK A01 T02280024  RH  026%=      5-min Rain = 0
KSB1 192310Z 25006KT 23/02 A2993 RMK A01 T02280024  RH  026%=      5-min Rain = 0
KSB1 192311Z 26005KT 23/02 A2993 RMK A01 T02270023  RH  026%=      5-min Rain = 0
KSB1 192312Z 25005KT 23/02 A2993 RMK A01 T02270023  RH  026%=      5-min Rain = 0
KSB1 192313Z 25005KT 23/02 A2993 RMK A01 T02270024  RH  026%=      5-min Rain = 0
KSB1 192314Z 25005KT 23/02 A2993 RMK A01 T02260024  RH  026%=      5-min Rain = 0
KSB1 192315Z 24005KT 23/02 A2993 RMK A01 T02260024  RH  026%=      5-min Rain = 0
KSB1 192316Z 24004KT 23/02 A2993 RMK A01 T02260024  RH  027%=      5-min Rain = 0
KSB1 192317Z 24004KT 23/02 A2992 RMK A01 T02250024  RH  027%=      5-min Rain = 0
KSB1 192318Z 24004KT 22/03 A2992 RMK A01 T02240025  RH  027%=      5-min Rain = 0
KSB1 192319Z 24004KT 22/03 A2992 RMK A01 T02230025  RH  027%=      5-min Rain = 0
KSB1 192320Z 23004KT 22/03 A2992 RMK A01 T02230025  RH  027%=      5-min Rain = 0
KSB1 192321Z 23004KT 22/03 A2992 RMK A01 T02220025  RH  027%=      5-min Rain = 0
KSB1 192322Z 23003KT 22/03 A2992 RMK A01 T02220026  RH  028%=      5-min Rain = 0
KSB1 192323Z 22003KT 22/03 A2992 RMK A01 T02200026  RH  028%=      5-min Rain = 0
KSB1 192324Z 22003KT 22/03 A2992 RMK A01 T02190026  RH  028%=      5-min Rain = 0
KSB1 192325Z 22003KT 22/03 A2992 RMK A01 T02190026  RH  028%=      5-min Rain = 0
KSB1 192326Z 22003KT 22/03 A2992 RMK A01 T02180026  RH  028%=      5-min Rain = 0
KSB1 192327Z 22003KT 22/03 A2992 RMK A01 T02180026  RH  028%=      5-min Rain = 0
KSB1 192328Z 23004KT 22/03 A2992 RMK A01 T02170026  RH  028%=      5-min Rain = 0
KSB1 192329Z 23004KT 22/03 A2992 RMK A01 T02170027  RH  029%=      5-min Rain = 0
KSB1 192330Z 23004KT 22/03 A2992 RMK A01 T02170027  RH  029%=      5-min Rain = 0
KSB1 192331Z 23004KT 22/03 A2992 RMK A01 T02160027  RH  029%=      5-min Rain = 0
KSB1 192332Z 23004KT 22/03 A2992 RMK A01 T02160027  RH  029%=      5-min Rain = 0
KSB1 192333Z 23004KT 22/03 A2992 RMK A01 T02150027  RH  029%=      5-min Rain = 0
KSB1 192334Z 23005KT 22/03 A2992 RMK A01 T02150027  RH  029%=      5-min Rain = 0
KSB1 192335Z 23005KT 21/03 A2992 RMK A01 T02140027  RH  029%=      5-min Rain = 0
KSB1 192336Z 23006KT 21/03 A2992 RMK A01 T02140027  RH  029%=      5-min Rain = 0
KSB1 192337Z 24005KT 21/03 A2992 RMK A01 T02140028  RH  029%=      5-min Rain = 0
KSB1 192338Z 24006KT 21/03 A2992 RMK A01 T02140028  RH  029%=      5-min Rain = 0
KSB1 192339Z 24005KT 21/03 A2993 RMK A01 T02130028  RH  029%=      5-min Rain = 0
KSB1 192340Z 24005KT 21/03 A2993 RMK A01 T02120028  RH  030%=      5-min Rain = 0
KSB1 192341Z 24005KT 21/03 A2993 RMK A01 T02120028  RH  030%=      5-min Rain = 0
KSB1 192342Z 24006KT 21/03 A2993 RMK A01 T02120028  RH  030%=      5-min Rain = 0
KSB1 192343Z 24006KT 21/03 A2993 RMK A01 T02120028  RH  030%=      5-min Rain = 0
KSB1 192344Z 24006KT 21/03 A2993 RMK A01 T02110028  RH  030%=      5-min Rain = 0
KSB1 192345Z 24006KT 21/03 A2993 RMK A01 T02110028  RH  030%=      5-min Rain = 0
KSB1 192346Z 24005KT 21/03 A2992 RMK A01 T02110028  RH  030%=      5-min Rain = 0
KSB1 192347Z 24005KT 21/03 A2992 RMK A01 T02100028  RH  030%=      5-min Rain = 0
KSB1 192348Z 25004KT 21/03 A2992 RMK A01 T02100028  RH  030%=      5-min Rain = 0
KSB1 192349Z 24004KT 21/03 A2992 RMK A01 T02100028  RH  030%=      5-min Rain = 0
KSB1 192350Z 24004KT 21/03 A2992 RMK A01 T02090028  RH  030%=      5-min Rain = 0
KSB1 192351Z 24004KT 21/03 A2992 RMK A01 T02090028  RH  030%=      5-min Rain = 0
KSB1 192352Z 24004KT 21/03 A2992 RMK A01 T02080028  RH  030%=      5-min Rain = 0
KSB1 192353Z 24004KT 21/03 A2992 RMK A01 T02070028  RH  031%=      5-min Rain = 0
KSB1 192354Z 24004KT 21/03 A2992 RMK A01 T02070029  RH  031%=      5-min Rain = 0
KSB1 192355Z 24004KT 21/03 A2992 RMK A01 T02070029  RH  031%=      5-min Rain = 0
KSB1 192356Z 24004KT 21/03 A2992 RMK A01 T02070029  RH  031%=      5-min Rain = 0
KSB1 192357Z 24003KT 21/03 A2992 RMK A01 T02070029  RH  031%=      5-min Rain = 0
KSB1 192358Z 24003KT 21/03 A2992 RMK A01 T02070029  RH  031%=      5-min Rain = 0
KSB1 192359Z 24003KT 21/03 A2992 RMK A01 T02080029  RH  031%=      5-min Rain = 0
KSB1 200000Z 24003KT 21/03 A2992 RMK A01 T02080029  RH  031%=      5-min Rain = 0
KSB1 200001Z 19002KT 21/03 A2992 RMK A01 T02070028  RH  031%=      5-min Rain = 0
KSB1 200002Z 19003KT 20/03 A2992 RMK A01 T02040027  RH  031%=      5-min Rain = 0
KSB1 200003Z 21003KT 20/03 A2992 RMK A01 T02010026  RH  031%=      5-min Rain = 0
KSB1 200004Z 22003KT 20/03 A2992 RMK A01 T02010027  RH  032%=      5-min Rain = 0
KSB1 200005Z 22003KT 20/03 A2992 RMK A01 T02010028  RH  032%=      5-min Rain = 0
KSB1 200006Z 23003KT 20/03 A2992 RMK A01 T02010027  RH  032%=      5-min Rain = 0
KSB1 200007Z 23003KT 20/03 A2992 RMK A01 T02000027  RH  032%=      5-min Rain = 0
KSB1 200008Z 23003KT 20/03 A2992 RMK A01 T02010028  RH  032%=      5-min Rain = 0
KSB1 200009Z 23004KT 20/03 A2992 RMK A01 T02010028  RH  032%=      5-min Rain = 0
KSB1 200010Z 22004KT 20/03 A2992 RMK A01 T02000028  RH  032%=      5-min Rain = 0
KSB1 200011Z 23004KT 20/03 A2992 RMK A01 T02010027  RH  032%=      5-min Rain = 0
KSB1 200012Z 22004KT 20/03 A2992 RMK A01 T02020027  RH  031%=      5-min Rain = 0
KSB1 200013Z 22004KT 20/03 A2992 RMK A01 T02020027  RH  031%=      5-min Rain = 0
KSB1 200014Z 23004KT 20/03 A2992 RMK A01 T02020027  RH  031%=      5-min Rain = 0
KSB1 200015Z 23004KT 20/03 A2992 RMK A01 T02020026  RH  031%=      5-min Rain = 0
KSB1 200016Z 23004KT 20/03 A2992 RMK A01 T02020027  RH  031%=      5-min Rain = 0
KSB1 200017Z 22004KT 20/03 A2992 RMK A01 T02020026  RH  031%=      5-min Rain = 0
KSB1 200018Z 22004KT 20/03 A2992 RMK A01 T02010025  RH  031%=      5-min Rain = 0
KSB1 200019Z 22005KT 20/03 A2993 RMK A01 T02000025  RH  031%=      5-min Rain = 0
KSB1 200020Z 23005KT 20/03 A2993 RMK A01 T02000025  RH  031%=      5-min Rain = 0
KSB1 200021Z 23005KT 20/03 A2993 RMK A01 T01990025  RH  031%=      5-min Rain = 0
KSB1 200022Z 23005KT 20/02 A2993 RMK A01 T01990024  RH  031%=      5-min Rain = 0
KSB1 200023Z 23005KT 20/02 A2993 RMK A01 T01980023  RH  031%=      5-min Rain = 0
KSB1 200024Z 22005KT 20/02 A2993 RMK A01 T01980022  RH  031%=      5-min Rain = 0
KSB1 200025Z 22006KT 20/02 A2993 RMK A01 T01970021  RH  031%=      5-min Rain = 0
KSB1 200026Z 22006KT 20/02 A2993 RMK A01 T01960020  RH  031%=      5-min Rain = 0
KSB1 200027Z 21006KT 20/02 A2993 RMK A01 T01950019  RH  031%=      5-min Rain = 0
KSB1 200028Z 21006KT 20/02 A2993 RMK A01 T01950017  RH  031%=      5-min Rain = 0
KSB1 200029Z 21006KT 19/02 A2993 RMK A01 T01940016  RH  030%=      5-min Rain = 0
KSB1 200030Z 22006KT 19/02 A2993 RMK A01 T01940015  RH  030%=      5-min Rain = 0
KSB1 200031Z 22006KT 19/02 A2993 RMK A01 T01940015  RH  030%=      5-min Rain = 0
KSB1 200032Z 22006KT 19/02 A2993 RMK A01 T01930015  RH  030%=      5-min Rain = 0
KSB1 200033Z 22007KT 19/01 A2993 RMK A01 T01920013  RH  030%=      5-min Rain = 0
KSB1 200034Z 22007KT 19/01 A2993 RMK A01 T01930013  RH  030%=      5-min Rain = 0
KSB1 200035Z 22006KT 19/01 A2993 RMK A01 T01930012  RH  030%=      5-min Rain = 0
KSB1 200036Z 22006KT 19/01 A2993 RMK A01 T01930012  RH  030%=      5-min Rain = 0
KSB1 200037Z 22006KT 19/01 A2993 RMK A01 T01930012  RH  030%=      5-min Rain = 0
KSB1 200038Z 24005KT 19/01 A2993 RMK A01 T01930012  RH  030%=      5-min Rain = 0
KSB1 200039Z 23006KT 19/01 A2993 RMK A01 T01930012  RH  030%=      5-min Rain = 0
KSB1 200040Z 23005KT 19/01 A2993 RMK A01 T01940012  RH  030%=      5-min Rain = 0
KSB1 200041Z 24005KT 19/01 A2994 RMK A01 T01940012  RH  030%=      5-min Rain = 0
KSB1 200042Z 23005KT 19/01 A2994 RMK A01 T01940012  RH  030%=      5-min Rain = 0
KSB1 200043Z 23005KT 19/01 A2994 RMK A01 T01940012  RH  030%=      5-min Rain = 0
KSB1 200044Z 24005KT 20/01 A2994 RMK A01 T01950012  RH  030%=      5-min Rain = 0
KSB1 200045Z 24005KT 20/01 A2994 RMK A01 T01950013  RH  029%=      5-min Rain = 0
KSB1 200046Z 24005KT 20/01 A2994 RMK A01 T01950013  RH  029%=      5-min Rain = 0
KSB1 200047Z 24004KT 20/01 A2994 RMK A01 T01950013  RH  030%=      5-min Rain = 0
KSB1 200048Z 24004KT 20/01 A2994 RMK A01 T01960013  RH  030%=      5-min Rain = 0
KSB1 200049Z 24004KT 20/01 A2993 RMK A01 T01960013  RH  029%=      5-min Rain = 0
KSB1 200050Z 24004KT 20/01 A2993 RMK A01 T01970014  RH  029%=      5-min Rain = 0
KSB1 200051Z 25004KT 20/01 A2993 RMK A01 T01970014  RH  029%=      5-min Rain = 0
KSB1 200052Z 25004KT 20/01 A2993 RMK A01 T01970014  RH  029%=      5-min Rain = 0
KSB1 200053Z 26004KT 20/01 A2993 RMK A01 T01980014  RH  029%=      5-min Rain = 0
KSB1 200054Z 26004KT 20/01 A2993 RMK A01 T01990014  RH  029%=      5-min Rain = 0
KSB1 200055Z 25004KT 20/01 A2993 RMK A01 T02000014  RH  029%=      5-min Rain = 0
KSB1 200056Z 25004KT 20/01 A2994 RMK A01 T02000013  RH  029%=      5-min Rain = 0
KSB1 200057Z 26004KT 20/01 A2994 RMK A01 T02000013  RH  029%=      5-min Rain = 0
KSB1 200058Z 25004KT 20/01 A2994 RMK A01 T02000013  RH  029%=      5-min Rain = 0
KSB1 200059Z 25004KT 20/01 A2994 RMK A01 T02000013  RH  029%=      5-min Rain = 0
KSB1 200100Z 25004KT 20/01 A2994 RMK A01 T02010013  RH  029%=      5-min Rain = 0
KSB1 200101Z 26004KT 20/01 A2994 RMK A01 T02010013  RH  029%=      5-min Rain = 0
KSB1 200102Z 26004KT 20/01 A2994 RMK A01 T02010012  RH  028%=      5-min Rain = 0
KSB1 200103Z 26005KT 20/01 A2994 RMK A01 T02020012  RH  028%=      5-min Rain = 0
KSB1 200104Z 26004KT 20/01 A2994 RMK A01 T02020012  RH  028%=      5-min Rain = 0
KSB1 200105Z 26004KT 20/01 A2994 RMK A01 T02020013  RH  028%=      5-min Rain = 0
KSB1 200106Z 25004KT 20/01 A2994 RMK A01 T02020013  RH  028%=      5-min Rain = 0
KSB1 200107Z 26004KT 20/01 A2994 RMK A01 T02020013  RH  028%=      5-min Rain = 0
KSB1 200108Z 26004KT 20/01 A2994 RMK A01 T02010013  RH  028%=      5-min Rain = 0
KSB1 200109Z 26004KT 20/01 A2994 RMK A01 T02010013  RH  028%=      5-min Rain = 0
KSB1 200110Z 26004KT 20/01 A2994 RMK A01 T02010013  RH  029%=      5-min Rain = 0
KSB1 200111Z 26004KT 20/01 A2994 RMK A01 T02010013  RH  029%=      5-min Rain = 0
KSB1 200112Z 26004KT 20/01 A2994 RMK A01 T02000013  RH  029%=      5-min Rain = 0
KSB1 200113Z 26004KT 20/01 A2994 RMK A01 T02010013  RH  029%=      5-min Rain = 0
KSB1 200114Z 26003KT 20/01 A2994 RMK A01 T02000012  RH  029%=      5-min Rain = 0
KSB1 200115Z 27003KT 20/01 A2993 RMK A01 T02010012  RH  028%=      5-min Rain = 0
KSB1 200116Z 26003KT 20/01 A2993 RMK A01 T02010012  RH  028%=      5-min Rain = 0
KSB1 200117Z 26003KT 20/01 A2993 RMK A01 T02020012  RH  028%=      5-min Rain = 0
KSB1 200118Z 26003KT 20/01 A2993 RMK A01 T02030012  RH  028%=      5-min Rain = 0
KSB1 200119Z 27003KT 20/01 A2993 RMK A01 T02030012  RH  028%=      5-min Rain = 0
KSB1 200120Z 27003KT 20/01 A2993 RMK A01 T02040011  RH  028%=      5-min Rain = 0
KSB1 200121Z 26003KT 21/01 A2994 RMK A01 T02050011  RH  027%=      5-min Rain = 0
KSB1 200122Z 26004KT 21/01 A2994 RMK A01 T02060011  RH  027%=      5-min Rain = 0
KSB1 200123Z 25004KT 21/01 A2994 RMK A01 T02050012  RH  027%=      5-min Rain = 0
KSB1 200124Z 25004KT 21/01 A2994 RMK A01 T02050012  RH  028%=      5-min Rain = 0
KSB1 200125Z 25005KT 21/01 A2994 RMK A01 T02050012  RH  028%=      5-min Rain = 0
KSB1 200126Z 25005KT 21/01 A2994 RMK A01 T02050012  RH  028%=      5-min Rain = 0
KSB1 200127Z 26005KT 20/01 A2995 RMK A01 T02040012  RH  028%=      5-min Rain = 0
KSB1 200128Z 26005KT 20/01 A2995 RMK A01 T02030012  RH  028%=      5-min Rain = 0
KSB1 200129Z 26005KT 20/01 A2995 RMK A01 T02020012  RH  028%=      5-min Rain = 0
KSB1 200130Z 26005KT 20/01 A2995 RMK A01 T02020012  RH  028%=      5-min Rain = 0
KSB1 200131Z 27006KT 20/01 A2995 RMK A01 T02010012  RH  028%=      5-min Rain = 0
KSB1 200132Z 27006KT 20/01 A2995 RMK A01 T02010012  RH  028%=      5-min Rain = 0
KSB1 200133Z 27006KT 20/01 A2995 RMK A01 T02000012  RH  028%=      5-min Rain = 0
KSB1 200134Z 28006KT 20/01 A2995 RMK A01 T01990012  RH  029%=      5-min Rain = 0
KSB1 200135Z 29006KT 20/01 A2995 RMK A01 T01980013  RH  029%=      5-min Rain = 0
KSB1 200136Z 30006KT 20/01 A2995 RMK A01 T01960013  RH  029%=      5-min Rain = 0
KSB1 200137Z 30005KT 20/01 A2995 RMK A01 T01960013  RH  029%=      5-min Rain = 0
KSB1 200138Z 31006KT 20/01 A2995 RMK A01 T01980012  RH  029%=      5-min Rain = 0
KSB1 200139Z 29006KT 20/01 A2995 RMK A01 T02010014  RH  029%=      5-min Rain = 0
KSB1 200140Z 30006KT 20/01 A2995 RMK A01 T02030014  RH  028%=      5-min Rain = 0
KSB1 200141Z 31007KT 20/01 A2995 RMK A01 T02030014  RH  028%=      5-min Rain = 0
KSB1 200142Z 30007KT 20/02 A2996 RMK A01 T02040016  RH  029%=      5-min Rain = 0
KSB1 200143Z 31007KT 21/02 A2996 RMK A01 T02050018  RH  029%=      5-min Rain = 0
KSB1 200144Z 31006KT 21/02 A2996 RMK A01 T02060019  RH  029%=      5-min Rain = 0
KSB1 200145Z 31004KT 21/02 A2996 RMK A01 T02070019  RH  029%=      5-min Rain = 0
KSB1 200146Z 30007KT 21/02 A2996 RMK A01 T02070019  RH  029%=      5-min Rain = 0
KSB1 200147Z 29007KT 21/02 A2996 RMK A01 T02070019  RH  029%=      5-min Rain = 0
KSB1 200148Z 29010KT 21/02 A2996 RMK A01 T02070018  RH  029%=      5-min Rain = 0
KSB1 200149Z 29009KT 21/02 A2996 RMK A01 T02070019  RH  029%=      5-min Rain = 0
KSB1 200150Z 29010KT 21/02 A2996 RMK A01 T02070020  RH  029%=      5-min Rain = 0
KSB1 200151Z 29009KT 21/02 A2996 RMK A01 T02060020  RH  029%=      5-min Rain = 0
KSB1 200152Z 29009KT 21/02 A2996 RMK A01 T02060020  RH  029%=      5-min Rain = 0
KSB1 200153Z 29011KT 21/02 A2996 RMK A01 T02050021  RH  029%=      5-min Rain = 0
KSB1 200154Z 30012KT 21/02 A2996 RMK A01 T02050022  RH  030%=      5-min Rain = 0
KSB1 200155Z 30012KT 21/02 A2996 RMK A01 T02050022  RH  030%=      5-min Rain = 0
KSB1 200156Z 30012KT 21/02 A2996 RMK A01 T02050022  RH  030%=      5-min Rain = 0
KSB1 200157Z 30010KT 21/02 A2996 RMK A01 T02050022  RH  030%=      5-min Rain = 0
KSB1 200158Z 30010KT 21/02 A2996 RMK A01 T02050023  RH  030%=      5-min Rain = 0
KSB1 200159Z 30011KT 21/02 A2996 RMK A01 T02050024  RH  030%=      5-min Rain = 0
KSB1 200200Z 30013KT 20/03 A2996 RMK A01 T02040025  RH  031%=      5-min Rain = 0
KSB1 200201Z 30013KT 20/03 A2996 RMK A01 T02040025  RH  030%=      5-min Rain = 0
KSB1 200202Z 30013KT 20/03 A2996 RMK A01 T02040025  RH  030%=      5-min Rain = 0
KSB1 200203Z 30012KT 20/03 A2996 RMK A01 T02040026  RH  031%=      5-min Rain = 0
KSB1 200204Z 30012KT 20/03 A2996 RMK A01 T02030027  RH  031%=      5-min Rain = 0
KSB1 200205Z 30013KT 20/03 A2996 RMK A01 T02030027  RH  031%=      5-min Rain = 0
KSB1 200206Z 29014KT 20/03 A2996 RMK A01 T02020027  RH  031%=      5-min Rain = 0
KSB1 200207Z 30013KT 20/03 A2996 RMK A01 T02020028  RH  032%=      5-min Rain = 0
KSB1 200208Z 30013KT 20/03 A2996 RMK A01 T02020030  RH  032%=      5-min Rain = 0
KSB1 200209Z 30013KT 20/03 A2996 RMK A01 T02020030  RH  032%=      5-min Rain = 0
KSB1 200210Z 30015KT 20/03 A2996 RMK A01 T02010031  RH  032%=      5-min Rain = 0
KSB1 200211Z 30014KT 20/03 A2996 RMK A01 T02010032  RH  033%=      5-min Rain = 0
KSB1 200212Z 30015KT 20/03 A2996 RMK A01 T02010032  RH  033%=      5-min Rain = 0
KSB1 200213Z 30015KT 20/03 A2996 RMK A01 T02000032  RH  033%=      5-min Rain = 0
KSB1 200214Z 30015KT 20/03 A2996 RMK A01 T02000033  RH  033%=      5-min Rain = 0
KSB1 200215Z 30014KT 20/03 A2996 RMK A01 T02000033  RH  033%=      5-min Rain = 0
KSB1 200216Z 30015KT 20/03 A2996 RMK A01 T02000033  RH  033%=      5-min Rain = 0
KSB1 200217Z 30015KT 20/03 A2996 RMK A01 T02000033  RH  033%=      5-min Rain = 0
KSB1 200218Z 30015KT 20/03 A2996 RMK A01 T02000033  RH  033%=      5-min Rain = 0
KSB1 200219Z 30015KT 20/03 A2996 RMK A01 T01990034  RH  033%=      5-min Rain = 0
KSB1 200220Z 30015KT 20/03 A2996 RMK A01 T01990034  RH  034%=      5-min Rain = 0
KSB1 200221Z 30013KT 20/04 A2997 RMK A01 T01980035  RH  034%=      5-min Rain = 0
KSB1 200222Z 30011KT 20/04 A2997 RMK A01 T01980035  RH  034%=      5-min Rain = 0
KSB1 200223Z 30011KT 20/04 A2997 RMK A01 T01970035  RH  034%=      5-min Rain = 0
KSB1 200224Z 29011G16KT 20/04 A2997 RMK A01 T01970036  RH  035%=      5-min Rain = 0
KSB1 200225Z 29013KT 20/04 A2997 RMK A01 T01960037  RH  035%=      5-min Rain = 0
KSB1 200226Z 30010KT 20/04 A2997 RMK A01 T01960037  RH  035%=      5-min Rain = 0
KSB1 200227Z 30013G18KT 20/04 A2997 RMK A01 T01960037  RH  035%=      5-min Rain = 0
KSB1 200228Z 30012G17KT 20/04 A2997 RMK A01 T01960038  RH  035%=      5-min Rain = 0
KSB1 200229Z 30010KT 20/04 A2998 RMK A01 T01960038  RH  035%=      5-min Rain = 0
KSB1 200230Z 29010KT 20/04 A2998 RMK A01 T01970038  RH  035%=      5-min Rain = 0
KSB1 200231Z 29011KT 20/04 A2998 RMK A01 T01970038  RH  035%=      5-min Rain = 0
KSB1 200232Z 28009KT 20/04 A2998 RMK A01 T01970039  RH  035%=      5-min Rain = 0
KSB1 200233Z 28010KT 20/04 A2998 RMK A01 T01960040  RH  036%=      5-min Rain = 0
KSB1 200234Z 27009KT 20/04 A2999 RMK A01 T01950041  RH  036%=      5-min Rain = 0
KSB1 200235Z 27011KT 19/04 A2999 RMK A01 T01940042  RH  037%=      5-min Rain = 0
KSB1 200236Z 27011G16KT 19/04 A2999 RMK A01 T01930044  RH  037%=      5-min Rain = 0
KSB1 200237Z 29013KT 19/05 A30 RMK A01 T01930048  RH  039%=      5-min Rain = 0
KSB1 200238Z 29011KT 19/05 A30 RMK A01 T01930049  RH  039%=      5-min Rain = 0
KSB1 200239Z 28021G30KT 19/06 A30 RMK A01 T01920059  RH  042%=      5-min Rain = 0
KSB1 200240Z 29024G32KT 18/08 A30 RMK A01 T01840079  RH  050%=      5-min Rain = 0
KSB1 200241Z 30022G28KT 17/09 A30 RMK A01 T01740087  RH  056%=      5-min Rain = 0
KSB1 200242Z 30020G27KT 17/09 A30 RMK A01 T01670091  RH  061%=      5-min Rain = 0
KSB1 200243Z 30019KT 16/10 A3001 RMK A01 T01610095  RH  065%=      5-min Rain = 0
KSB1 200244Z 29020KT 16/10 A3001 RMK A01 T01570101  RH  069%=      5-min Rain = 0
KSB1 200245Z 30020G26KT 15/11 A3001 RMK A01 T01530105  RH  073%=      5-min Rain = 0
KSB1 200246Z 30018KT 15/11 A3001 RMK A01 T01500108  RH  076%=      5-min Rain = 0
KSB1 200247Z 30018G23KT 15/11 A3001 RMK A01 T01480110  RH  078%=      5-min Rain = 0
KSB1 200248Z 29020G26KT 15/11 A3001 RMK A01 T01460112  RH  080%=      5-min Rain = 0
KSB1 200249Z 30017G22KT 15/11 A3001 RMK A01 T01450114  RH  081%=      5-min Rain = 0
KSB1 200250Z 30016G21KT 14/12 A3001 RMK A01 T01440115  RH  082%=      5-min Rain = 0
KSB1 200251Z 31015G23KT 14/12 A3001 RMK A01 T01430118  RH  085%=      5-min Rain = 0
KSB1 200252Z 30017G22KT 14/12 A3001 RMK A01 T01430118  RH  085%=      5-min Rain = 0
KSB1 200253Z 30015G20KT 14/12 A3001 RMK A01 T01430121  RH  087%=      5-min Rain = 0
KSB1 200254Z 30017G23KT 14/12 A3001 RMK A01 T01420121  RH  087%=      5-min Rain = 0
KSB1 200255Z 31012KT 14/12 A3002 RMK A01 T01420122  RH  088%=      5-min Rain = 0
KSB1 200256Z 30017KT 14/12 A3002 RMK A01 T01430124  RH  089%=      5-min Rain = 0
KSB1 200257Z 30016KT 14/12 A3002 RMK A01 T01420123  RH  088%=      5-min Rain = 0
KSB1 200258Z 30016KT 14/12 A3002 RMK A01 T01430123  RH  088%=      5-min Rain = 0
KSB1 200259Z 30017KT 14/12 A3002 RMK A01 T01430124  RH  088%=      5-min Rain = 0
KSB1 200300Z 30016KT 14/12 A3002 RMK A01 T01430124  RH  088%=      5-min Rain = 0
KSB1 200301Z 30015KT 14/12 A3002 RMK A01 T01430124  RH  088%=      5-min Rain = 0
KSB1 200302Z 30015KT 14/13 A3003 RMK A01 T01440125  RH  088%=      5-min Rain = 0
KSB1 200303Z 29016G21KT 14/12 A3003 RMK A01 T01440124  RH  088%=      5-min Rain = 0
KSB1 200304Z 30016KT 14/12 A3003 RMK A01 T01440124  RH  088%=      5-min Rain = 0
KSB1 200305Z 29011KT 14/12 A3003 RMK A01 T01440124  RH  088%=      5-min Rain = 0
KSB1 200306Z 28012KT 14/13 A3003 RMK A01 T01440126  RH  089%=      5-min Rain = 0
KSB1 200307Z 28011KT 14/13 A3004 RMK A01 T01440126  RH  089%=      5-min Rain = 0
KSB1 200308Z 28012KT 14/13 A3004 RMK A01 T01430126  RH  089%=      5-min Rain = 0
KSB1 200309Z 28012KT 14/13 A3004 RMK A01 T01430126  RH  090%=      5-min Rain = 0
KSB1 200310Z 28010KT 14/13 A3004 RMK A01 T01430126  RH  090%=      5-min Rain = 0
KSB1 200311Z 28009KT 14/13 A3004 RMK A01 T01420127  RH  091%=      5-min Rain = 0
KSB1 200312Z 28009KT 14/13 A3004 RMK A01 T01410128  RH  092%=      5-min Rain = 0
KSB1 200313Z 28010KT 14/13 A3004 RMK A01 T01410128  RH  092%=      5-min Rain = 0
KSB1 200314Z 29009KT 14/13 A3004 RMK A01 T01410128  RH  092%=      5-min Rain = 0
KSB1 200315Z 30010KT 14/13 A3004 RMK A01 T01410127  RH  092%=      5-min Rain = 0.01
KSB1 200316Z 30009KT 14/13 A3004 RMK A01 T01410127  RH  092%=      5-min Rain = 0
KSB1 200317Z 29007KT 14/13 A3004 RMK A01 T01410128  RH  092%=      5-min Rain = 0
KSB1 200318Z 29009KT 14/13 A3004 RMK A01 T01410128  RH  092%=      5-min Rain = 0
KSB1 200319Z 29007KT 14/13 A3004 RMK A01 T01410128  RH  092%=      5-min Rain = 0
KSB1 200320Z 30006KT 14/13 A3004 RMK A01 T01410128  RH  092%=      5-min Rain = 0.01
KSB1 200321Z 30011KT 14/13 A3003 RMK A01 T01400127  RH  092%=      5-min Rain = 0
KSB1 200322Z 32010KT 14/13 A3003 RMK A01 T01400126  RH  091%=      5-min Rain = 0
KSB1 200323Z 32009KT 14/13 A3003 RMK A01 T01410126  RH  091%=      5-min Rain = 0
KSB1 200324Z 32007KT 14/13 A3003 RMK A01 T01410127  RH  091%=      5-min Rain = 0.01
KSB1 200325Z 32008KT 14/13 A3003 RMK A01 T01400127  RH  092%=      5-min Rain = 0
KSB1 200326Z 33007KT 14/13 A3002 RMK A01 T01400127  RH  092%=      5-min Rain = 0
KSB1 200327Z 33008KT 14/13 A3002 RMK A01 T01400126  RH  092%=      5-min Rain = 0.01
KSB1 200328Z 33007KT 14/13 A3001 RMK A01 T01400126  RH  092%=      5-min Rain = 0
KSB1 200329Z 34006KT 14/13 A3001 RMK A01 T01400126  RH  092%=      5-min Rain = 0.01
KSB1 200330Z 34006KT 14/13 A3001 RMK A01 T01400127  RH  092%=      5-min Rain = 0
KSB1 200331Z 34007KT 14/13 A3001 RMK A01 T01390128  RH  093%=      5-min Rain = 0
KSB1 200332Z 33006KT 14/13 A3001 RMK A01 T01390129  RH  094%=      5-min Rain = 0.01
KSB1 200333Z 32007KT 14/13 A3001 RMK A01 T01380129  RH  094%=      5-min Rain = 0
KSB1 200334Z 31008KT 14/13 A3001 RMK A01 T01380129  RH  094%=      5-min Rain = 0
KSB1 200335Z 30009KT 14/13 A3001 RMK A01 T01380128  RH  094%=      5-min Rain = 0.01
KSB1 200336Z 31009KT 14/13 A3001 RMK A01 T01380127  RH  093%=      5-min Rain = 0
KSB1 200337Z 31009KT 14/13 A3001 RMK A01 T01380126  RH  092%=      5-min Rain = 0
KSB1 200338Z 31010KT 14/13 A3001 RMK A01 T01380125  RH  092%=      5-min Rain = 0
KSB1 200339Z 31009KT 14/13 A30 RMK A01 T01380125  RH  092%=      5-min Rain = 0
KSB1 200340Z 32008KT 14/13 A30 RMK A01 T01380126  RH  092%=      5-min Rain = 0
KSB1 200341Z 32008KT 14/13 A30 RMK A01 T01380127  RH  093%=      5-min Rain = 0
KSB1 200342Z 32007KT 14/13 A30 RMK A01 T01370128  RH  094%=      5-min Rain = 0
KSB1 200343Z 32008KT 14/13 A30 RMK A01 T01370128  RH  095%=      5-min Rain = 0
KSB1 200344Z 31007KT 14/13 A30 RMK A01 T01360128  RH  095%=      5-min Rain = 0
KSB1 200345Z 32007KT 14/13 A30 RMK A01 T01360127  RH  094%=      5-min Rain = 0
KSB1 200346Z 31007KT 14/13 A30 RMK A01 T01350125  RH  094%=      5-min Rain = 0
KSB1 200347Z 31008KT 14/13 A30 RMK A01 T01350125  RH  093%=      5-min Rain = 0
KSB1 200348Z 31007KT 14/12 A30 RMK A01 T01350124  RH  093%=      5-min Rain = 0
KSB1 200349Z 31009KT 14/12 A30 RMK A01 T01350124  RH  093%=      5-min Rain = 0
KSB1 200350Z 31009KT 14/12 A30 RMK A01 T01350123  RH  093%=      5-min Rain = 0
KSB1 200351Z 30009KT 14/12 A30 RMK A01 T01350123  RH  092%=      5-min Rain = 0
KSB1 200352Z 30011KT 14/12 A30 RMK A01 T01350123  RH  092%=      5-min Rain = 0
KSB1 200353Z 30014KT 14/12 A30 RMK A01 T01350121  RH  091%=      5-min Rain = 0
KSB1 200354Z 30013KT 14/12 A30 RMK A01 T01350120  RH  090%=      5-min Rain = 0
KSB1 200355Z 29011KT 14/12 A30 RMK A01 T01360121  RH  091%=      5-min Rain = 0
KSB1 200356Z 29012KT 14/12 A30 RMK A01 T01360124  RH  092%=      5-min Rain = 0
KSB1 200357Z 29014KT 14/12 A30 RMK A01 T01360124  RH  093%=      5-min Rain = 0
KSB1 200358Z 29013KT 14/12 A30 RMK A01 T01350123  RH  092%=      5-min Rain = 0
KSB1 200359Z 29013KT 14/12 A30 RMK A01 T01350123  RH  092%=      5-min Rain = 0
KSB1 200400Z 29012KT 14/12 A30 RMK A01 T01350123  RH  092%=      5-min Rain = 0
KSB1 200401Z 29010KT 14/12 A30 RMK A01 T01350122  RH  092%=      5-min Rain = 0
KSB1 200402Z 29011KT 14/12 A30 RMK A01 T01350123  RH  092%=      5-min Rain = 0
KSB1 200403Z 29009KT 14/12 A30 RMK A01 T01350123  RH  092%=      5-min Rain = 0
KSB1 200404Z 29008KT 14/12 A2999 RMK A01 T01350123  RH  093%=      5-min Rain = 0
KSB1 200405Z 30011KT 14/12 A2999 RMK A01 T01350122  RH  092%=      5-min Rain = 0
KSB1 200406Z 31009KT 14/12 A2999 RMK A01 T01360119  RH  089%=      5-min Rain = 0
KSB1 200407Z 31009KT 14/12 A2999 RMK A01 T01380116  RH  086%=      5-min Rain = 0
KSB1 200408Z 32009KT 14/12 A2999 RMK A01 T01400115  RH  085%=      5-min Rain = 0
KSB1 200409Z 31009KT 14/11 A2999 RMK A01 T01410114  RH  084%=      5-min Rain = 0
KSB1 200410Z 32008KT 14/12 A2998 RMK A01 T01410115  RH  084%=      5-min Rain = 0
KSB1 200411Z 33008KT 14/12 A2998 RMK A01 T01410115  RH  085%=      5-min Rain = 0
KSB1 200412Z 34007KT 14/12 A2998 RMK A01 T01400115  RH  085%=      5-min Rain = 0
KSB1 200413Z 01006KT 14/12 A2998 RMK A01 T01390118  RH  087%=      5-min Rain = 0
KSB1 200414Z 04007KT 14/12 A2998 RMK A01 T01380119  RH  088%=      5-min Rain = 0
KSB1 200415Z 05007KT 14/12 A2998 RMK A01 T01360122  RH  091%=      5-min Rain = 0
KSB1 200416Z 05008KT 13/12 A2998 RMK A01 T01340124  RH  093%=      5-min Rain = 0
KSB1 200417Z 04007KT 13/13 A2998 RMK A01 T01330125  RH  094%=      5-min Rain = 0
KSB1 200418Z 04007KT 13/13 A2998 RMK A01 T01320125  RH  095%=      5-min Rain = 0
KSB1 200419Z 04005KT 13/12 A2998 RMK A01 T01310124  RH  095%=      5-min Rain = 0
KSB1 200420Z 04004KT 13/12 A2998 RMK A01 T01310124  RH  095%=      5-min Rain = 0
KSB1 200421Z 03004KT 13/12 A2998 RMK A01 T01310124  RH  095%=      5-min Rain = 0
KSB1 200422Z 03004KT 13/12 A2999 RMK A01 T01310124  RH  095%=      5-min Rain = 0
KSB1 200423Z 04004KT 13/12 A2999 RMK A01 T01310123  RH  095%=      5-min Rain = 0
KSB1 200424Z 03004KT 13/12 A2998 RMK A01 T01320123  RH  095%=      5-min Rain = 0
KSB1 200425Z 02005KT 13/12 A2998 RMK A01 T01320123  RH  095%=      5-min Rain = 0
KSB1 200426Z 02004KT 13/12 A2998 RMK A01 T01320123  RH  095%=      5-min Rain = 0
KSB1 200427Z 02004KT 13/12 A2998 RMK A01 T01310123  RH  095%=      5-min Rain = 0
KSB1 200428Z 01005KT 13/12 A2998 RMK A01 T01310124  RH  095%=      5-min Rain = 0
KSB1 200429Z 01005KT 13/12 A2998 RMK A01 T01310124  RH  095%=      5-min Rain = 0
KSB1 200430Z 01005KT 13/12 A2997 RMK A01 T01310124  RH  095%=      5-min Rain = 0
KSB1 200431Z 01005KT 13/12 A2997 RMK A01 T01310124  RH  095%=      5-min Rain = 0
KSB1 200432Z 02005KT 13/12 A2997 RMK A01 T01310123  RH  095%=      5-min Rain = 0
KSB1 200433Z 02005KT 13/12 A2997 RMK A01 T01310123  RH  095%=      5-min Rain = 0
KSB1 200434Z 03005KT 13/12 A2997 RMK A01 T01310122  RH  095%=      5-min Rain = 0
KSB1 200435Z 03005KT 13/12 A2997 RMK A01 T01310123  RH  095%=      5-min Rain = 0
KSB1 200436Z 04005KT 13/12 A2997 RMK A01 T01310124  RH  095%=      5-min Rain = 0
KSB1 200437Z 04004KT 13/12 A2997 RMK A01 T01300123  RH  096%=      5-min Rain = 0
KSB1 200438Z 04004KT 13/12 A2997 RMK A01 T01300123  RH  096%=      5-min Rain = 0
KSB1 200439Z 05003KT 13/12 A2998 RMK A01 T01290123  RH  096%=      5-min Rain = 0
KSB1 200440Z 05002KT 13/12 A2998 RMK A01 T01290123  RH  096%=      5-min Rain = 0
KSB1 200441Z 05002KT 13/12 A2998 RMK A01 T01290123  RH  096%=      5-min Rain = 0
KSB1 200442Z 04002KT 13/12 A2998 RMK A01 T01280123  RH  097%=      5-min Rain = 0
KSB1 200443Z 02002KT 13/12 A2998 RMK A01 T01280123  RH  097%=      5-min Rain = 0
KSB1 200444Z 02003KT 13/12 A2998 RMK A01 T01280123  RH  097%=      5-min Rain = 0
KSB1 200445Z 03003KT 13/12 A2998 RMK A01 T01280123  RH  097%=      5-min Rain = 0
KSB1 200446Z 02003KT 13/12 A2998 RMK A01 T01280123  RH  097%=      5-min Rain = 0
KSB1 200447Z 02002KT 13/12 A2998 RMK A01 T01280122  RH  096%=      5-min Rain = 0
KSB1 200448Z 02002KT 13/12 A2998 RMK A01 T01280122  RH  096%=      5-min Rain = 0
KSB1 200449Z 01002KT 13/12 A2998 RMK A01 T01280122  RH  096%=      5-min Rain = 0
KSB1 200450Z 00003KT 13/12 A2998 RMK A01 T01280122  RH  096%=      5-min Rain = 0
KSB1 200451Z 00002KT 13/12 A2998 RMK A01 T01280122  RH  096%=      5-min Rain = 0
KSB1 200452Z 35002KT 13/12 A2998 RMK A01 T01280122  RH  096%=      5-min Rain = 0
KSB1 200453Z 35001KT 13/12 A2998 RMK A01 T01280122  RH  096%=      5-min Rain = 0
KSB1 200454Z 34001KT 13/12 A2998 RMK A01 T01290122  RH  096%=      5-min Rain = 0
KSB1 200455Z 35001KT 13/12 A2998 RMK A01 T01290122  RH  096%=      5-min Rain = 0
KSB1 200456Z 01001KT 13/12 A2998 RMK A01 T01280122  RH  096%=      5-min Rain = 0
KSB1 200457Z 00001KT 13/12 A2998 RMK A01 T01280121  RH  096%=      5-min Rain = 0
KSB1 200458Z 35002KT 13/12 A2998 RMK A01 T01280122  RH  096%=      5-min Rain = 0
KSB1 200459Z 36003KT 13/12 A2998 RMK A01 T01290122  RH  096%=      5-min Rain = 0
KSB1 200500Z 36003KT 13/12 A2998 RMK A01 T01290123  RH  096%=      5-min Rain = 0
KSB1 200501Z 00004KT 13/12 A2998 RMK A01 T01290123  RH  096%=      5-min Rain = 0
KSB1 200502Z 00004KT 13/12 A2998 RMK A01 T01290122  RH  096%=      5-min Rain = 0
KSB1 200503Z 35004KT 13/12 A2998 RMK A01 T01290122  RH  096%=      5-min Rain = 0
KSB1 200504Z 33003KT 13/12 A2999 RMK A01 T01290122  RH  095%=      5-min Rain = 0
KSB1 200505Z 34004KT 13/12 A2998 RMK A01 T01290123  RH  096%=      5-min Rain = 0
KSB1 200506Z 34004KT 13/12 A2998 RMK A01 T01290122  RH  095%=      5-min Rain = 0
KSB1 200507Z 34003KT 13/12 A2998 RMK A01 T01290121  RH  095%=      5-min Rain = 0
KSB1 200508Z 34003KT 13/12 A2998 RMK A01 T01290121  RH  095%=      5-min Rain = 0
KSB1 200509Z 35003KT 13/12 A2998 RMK A01 T01290121  RH  095%=      5-min Rain = 0
KSB1 200510Z 34002KT 13/12 A2998 RMK A01 T01290121  RH  095%=      5-min Rain = 0
KSB1 200511Z 34002KT 13/12 A2999 RMK A01 T01290121  RH  095%=      5-min Rain = 0
KSB1 200512Z 34001KT 13/12 A2999 RMK A01 T01300121  RH  095%=      5-min Rain = 0
KSB1 200513Z 33001KT 13/12 A2999 RMK A01 T01300122  RH  095%=      5-min Rain = 0
KSB1 200514Z 33000KT 13/12 A2999 RMK A01 T01300122  RH  095%=      5-min Rain = 0
KSB1 200515Z 00000KT 13/12 A2999 RMK A01 T01300122  RH  095%=      5-min Rain = 0
KSB1 200516Z 00000KT 13/12 A2999 RMK A01 T01300122  RH  095%=      5-min Rain = 0
KSB1 200517Z 00000KT 13/12 A2999 RMK A01 T01300122  RH  095%=      5-min Rain = 0
KSB1 200518Z 19001KT 13/12 A2999 RMK A01 T01300122  RH  095%=      5-min Rain = 0
KSB1 200519Z 19002KT 13/12 A2999 RMK A01 T01300122  RH  095%=      5-min Rain = 0
KSB1 200520Z 18003KT 13/12 A30 RMK A01 T01300122  RH  095%=      5-min Rain = 0
KSB1 200521Z 18004KT 13/12 A30 RMK A01 T01300123  RH  095%=      5-min Rain = 0
KSB1 200522Z 18004KT 13/12 A30 RMK A01 T01300123  RH  096%=      5-min Rain = 0
KSB1 200523Z 18004KT 13/12 A3001 RMK A01 T01290123  RH  096%=      5-min Rain = 0
KSB1 200524Z 18004KT 13/12 A3001 RMK A01 T01290123  RH  096%=      5-min Rain = 0
KSB1 200525Z 19004KT 13/12 A30 RMK A01 T01290123  RH  096%=      5-min Rain = 0
KSB1 200526Z 17003KT 13/12 A30 RMK A01 T01290123  RH  097%=      5-min Rain = 0
KSB1 200527Z 13002KT 13/12 A30 RMK A01 T01280123  RH  097%=      5-min Rain = 0.01
KSB1 200528Z 08002KT 13/12 A2999 RMK A01 T01280124  RH  097%=      5-min Rain = 0.01
KSB1 200529Z 06003KT 13/12 A2998 RMK A01 T01280124  RH  097%=      5-min Rain = 0.01
KSB1 200530Z 05004KT 13/12 A2998 RMK A01 T01280124  RH  098%=      5-min Rain = 0.01
KSB1 200531Z 05002KT 13/12 A2998 RMK A01 T01280124  RH  098%=      5-min Rain = 0.01
KSB1 200532Z 06000KT 13/13 A2999 RMK A01 T01270125  RH  098%=      5-min Rain = 0
KSB1 200533Z 21003KT 13/13 A30 RMK A01 T01270125  RH  099%=      5-min Rain = 0
KSB1 200534Z 21006KT 13/13 A3001 RMK A01 T01270125  RH  099%=      5-min Rain = 0
KSB1 200535Z 21009KT 13/13 A3001 RMK A01 T01270125  RH  099%=      5-min Rain = 0.01
KSB1 200536Z 21011KT 13/12 A3002 RMK A01 T01260124  RH  099%=      5-min Rain = 0
KSB1 200537Z 21011KT 13/12 A3002 RMK A01 T01260124  RH  099%=      5-min Rain = 0.01
KSB1 200538Z 21009KT 13/12 A3002 RMK A01 T01250124  RH  099%=      5-min Rain = 0
KSB1 200539Z 20006KT 13/12 A3001 RMK A01 T01250124  RH  099%=      5-min Rain = 0.01
KSB1 200540Z 19004KT 12/12 A3001 RMK A01 T01240124  RH  100%=      5-min Rain = 0.01
KSB1 200541Z 18004KT 12/12 A30 RMK A01 T01240124  RH  100%=      5-min Rain = 0
KSB1 200542Z 17004KT 12/12 A30 RMK A01 T01240124  RH  100%=      5-min Rain = 0
KSB1 200543Z 16005KT 12/12 A30 RMK A01 T01240124  RH  100%=      5-min Rain = 0.01
KSB1 200544Z 15004KT 12/12 A30 RMK A01 T01240124  RH  100%=      5-min Rain = 0
KSB1 200545Z 15003KT 12/12 A2999 RMK A01 T01240124  RH  100%=      5-min Rain = 0
KSB1 200546Z 15003KT 12/12 A2999 RMK A01 T01240124  RH  100%=      5-min Rain = 0
KSB1 200547Z 15003KT 12/12 A2999 RMK A01 T01240124  RH  100%=      5-min Rain = 0.01
KSB1 200548Z 15003KT 12/12 A2999 RMK A01 T01240124  RH  100%=      5-min Rain = 0
KSB1 200549Z 16002KT 12/12 A2999 RMK A01 T01240124  RH  100%=      5-min Rain = 0
KSB1 200550Z 17003KT 12/12 A2999 RMK A01 T01240124  RH  100%=      5-min Rain = 0
KSB1 200551Z 17003KT 12/12 A2999 RMK A01 T01240124  RH  100%=      5-min Rain = 0
KSB1 200552Z 17002KT 12/12 A2999 RMK A01 T01240124  RH  100%=      5-min Rain = 0.01
KSB1 200553Z 19003KT 12/12 A2999 RMK A01 T01240124  RH  100%=      5-min Rain = 0
KSB1 200554Z 20003KT 12/12 A30 RMK A01 T01240124  RH  100%=      5-min Rain = 0
KSB1 200555Z 21003KT 12/12 A30 RMK A01 T01240124  RH  100%=      5-min Rain = 0.01
KSB1 200556Z 22003KT 12/12 A30 RMK A01 T01240124  RH  100%=      5-min Rain = 0
KSB1 200557Z 22003KT 12/12 A30 RMK A01 T01230123  RH  100%=      5-min Rain = 0
KSB1 200558Z 22002KT 12/12 A2999 RMK A01 T01230123  RH  100%=      5-min Rain = 0
KSB1 200559Z 22002KT 12/12 A2999 RMK A01 T01230123  RH  100%=      5-min Rain = 0

Page generated in 0.1413 seconds.